Observation data for Clyde on 06/16/2019      Previous  Date  Next       Current Mesonet Observations  Soil Data  Daily Summary Page  Observations in Plain Language
KCL2 160500Z 17015KT 27/19 A2981 RMK A01 T02740194  RH  062%=      5-min Rain = 0
KCL2 160501Z 17013KT 27/19 A2981 RMK A01 T02740194  RH  062%=      5-min Rain = 0
KCL2 160502Z 17012KT 27/19 A2981 RMK A01 T02730193  RH  062%=      5-min Rain = 0
KCL2 160503Z 18013KT 27/19 A2981 RMK A01 T02730193  RH  062%=      5-min Rain = 0
KCL2 160504Z 18015KT 27/19 A2981 RMK A01 T02730193  RH  062%=      5-min Rain = 0
KCL2 160505Z 17013KT 27/19 A2981 RMK A01 T02730193  RH  062%=      5-min Rain = 0
KCL2 160506Z 18016KT 27/19 A2981 RMK A01 T02730193  RH  062%=      5-min Rain = 0
KCL2 160507Z 18015KT 27/19 A2981 RMK A01 T02730192  RH  061%=      5-min Rain = 0
KCL2 160508Z 18014G19KT 27/19 A2981 RMK A01 T02730192  RH  061%=      5-min Rain = 0
KCL2 160509Z 17014KT 27/19 A2981 RMK A01 T02740193  RH  061%=      5-min Rain = 0
KCL2 160510Z 17014KT 27/19 A2981 RMK A01 T02730193  RH  061%=      5-min Rain = 0
KCL2 160511Z 17014KT 27/19 A2981 RMK A01 T02730192  RH  061%=      5-min Rain = 0
KCL2 160512Z 18014G20KT 27/19 A2981 RMK A01 T02730192  RH  061%=      5-min Rain = 0
KCL2 160513Z 18015KT 27/19 A2981 RMK A01 T02730192  RH  061%=      5-min Rain = 0
KCL2 160514Z 17016KT 27/19 A2981 RMK A01 T02730192  RH  061%=      5-min Rain = 0
KCL2 160515Z 18015KT 27/19 A2981 RMK A01 T02730192  RH  061%=      5-min Rain = 0
KCL2 160516Z 18015G20KT 27/19 A2981 RMK A01 T02740192  RH  061%=      5-min Rain = 0
KCL2 160517Z 18015G20KT 27/19 A2981 RMK A01 T02730192  RH  061%=      5-min Rain = 0
KCL2 160518Z 18013KT 27/19 A2982 RMK A01 T02740192  RH  061%=      5-min Rain = 0
KCL2 160519Z 18012KT 27/19 A2982 RMK A01 T02740192  RH  061%=      5-min Rain = 0
KCL2 160520Z 18013KT 27/19 A2982 RMK A01 T02740193  RH  061%=      5-min Rain = 0
KCL2 160521Z 19013KT 27/19 A2982 RMK A01 T02740192  RH  061%=      5-min Rain = 0
KCL2 160522Z 18012KT 27/19 A2982 RMK A01 T02730192  RH  061%=      5-min Rain = 0
KCL2 160523Z 19015KT 27/19 A2982 RMK A01 T02730192  RH  061%=      5-min Rain = 0
KCL2 160524Z 18012KT 27/19 A2982 RMK A01 T02730192  RH  061%=      5-min Rain = 0
KCL2 160525Z 18013KT 27/19 A2982 RMK A01 T02740192  RH  061%=      5-min Rain = 0
KCL2 160526Z 17011G17KT 27/19 A2982 RMK A01 T02730193  RH  061%=      5-min Rain = 0
KCL2 160527Z 18010KT 27/19 A2982 RMK A01 T02730193  RH  062%=      5-min Rain = 0
KCL2 160528Z 17011KT 27/19 A2982 RMK A01 T02720192  RH  062%=      5-min Rain = 0
KCL2 160529Z 17010KT 27/19 A2982 RMK A01 T02720192  RH  062%=      5-min Rain = 0
KCL2 160530Z 18010G15KT 27/19 A2982 RMK A01 T02710192  RH  062%=      5-min Rain = 0
KCL2 160531Z 18012KT 27/19 A2982 RMK A01 T02710192  RH  062%=      5-min Rain = 0
KCL2 160532Z 18015KT 27/19 A2982 RMK A01 T02700192  RH  062%=      5-min Rain = 0
KCL2 160533Z 18016KT 27/19 A2982 RMK A01 T02710191  RH  062%=      5-min Rain = 0
KCL2 160534Z 18016KT 27/19 A2981 RMK A01 T02720191  RH  061%=      5-min Rain = 0
KCL2 160535Z 18014KT 27/19 A2981 RMK A01 T02720191  RH  061%=      5-min Rain = 0
KCL2 160536Z 17012KT 27/19 A2981 RMK A01 T02720192  RH  061%=      5-min Rain = 0
KCL2 160537Z 17016KT 27/19 A2981 RMK A01 T02720192  RH  062%=      5-min Rain = 0
KCL2 160538Z 17015KT 27/19 A2981 RMK A01 T02710191  RH  062%=      5-min Rain = 0
KCL2 160539Z 17015KT 27/19 A298 RMK A01 T02710192  RH  062%=      5-min Rain = 0
KCL2 160540Z 17014KT 27/19 A298 RMK A01 T02710192  RH  062%=      5-min Rain = 0
KCL2 160541Z 16017G23KT 27/19 A2979 RMK A01 T02710191  RH  062%=      5-min Rain = 0
KCL2 160542Z 16017KT 27/19 A2979 RMK A01 T02710192  RH  062%=      5-min Rain = 0
KCL2 160543Z 17018G24KT 27/19 A2979 RMK A01 T02700192  RH  062%=      5-min Rain = 0
KCL2 160544Z 16017G24KT 27/19 A2979 RMK A01 T02700191  RH  062%=      5-min Rain = 0
KCL2 160545Z 16018G23KT 27/19 A2978 RMK A01 T02700191  RH  062%=      5-min Rain = 0
KCL2 160546Z 16017G22KT 27/19 A2978 RMK A01 T02700191  RH  062%=      5-min Rain = 0
KCL2 160547Z 17019KT 27/19 A2978 RMK A01 T02700191  RH  062%=      5-min Rain = 0
KCL2 160548Z 16016KT 27/19 A2979 RMK A01 T02700191  RH  062%=      5-min Rain = 0
KCL2 160549Z 17016KT 27/19 A2979 RMK A01 T02700191  RH  062%=      5-min Rain = 0
KCL2 160550Z 17016G21KT 27/19 A2979 RMK A01 T02700191  RH  062%=      5-min Rain = 0
KCL2 160551Z 17019G25KT 27/19 A2979 RMK A01 T02700191  RH  062%=      5-min Rain = 0
KCL2 160552Z 17018KT 27/19 A2979 RMK A01 T02700191  RH  062%=      5-min Rain = 0
KCL2 160553Z 17014KT 27/19 A2979 RMK A01 T02700191  RH  062%=      5-min Rain = 0
KCL2 160554Z 17018KT 27/19 A298 RMK A01 T02690191  RH  062%=      5-min Rain = 0
KCL2 160555Z 17016KT 27/19 A298 RMK A01 T02690191  RH  062%=      5-min Rain = 0
KCL2 160556Z 17015KT 27/19 A298 RMK A01 T02690191  RH  062%=      5-min Rain = 0
KCL2 160557Z 18013KT 27/19 A298 RMK A01 T02690192  RH  063%=      5-min Rain = 0
KCL2 160558Z 18015G20KT 27/19 A298 RMK A01 T02680191  RH  063%=      5-min Rain = 0
KCL2 160559Z 18014KT 27/19 A2981 RMK A01 T02680191  RH  063%=      5-min Rain = 0
KCL2 160600Z 17015KT 27/19 A2981 RMK A01 T02680190  RH  062%=      5-min Rain = 0
KCL2 160601Z 17013KT 27/19 A2981 RMK A01 T02690191  RH  062%=      5-min Rain = 0
KCL2 160602Z 16012KT 27/19 A2981 RMK A01 T02690192  RH  063%=      5-min Rain = 0
KCL2 160603Z 17012KT 27/19 A2981 RMK A01 T02680192  RH  063%=      5-min Rain = 0
KCL2 160604Z 17012KT 27/19 A2981 RMK A01 T02670192  RH  063%=      5-min Rain = 0
KCL2 160605Z 17012G17KT 27/19 A2981 RMK A01 T02660192  RH  064%=      5-min Rain = 0
KCL2 160606Z 17010KT 27/19 A2981 RMK A01 T02650191  RH  064%=      5-min Rain = 0
KCL2 160607Z 17013G18KT 27/19 A2981 RMK A01 T02650191  RH  064%=      5-min Rain = 0
KCL2 160608Z 17015KT 27/19 A2981 RMK A01 T02650190  RH  063%=      5-min Rain = 0
KCL2 160609Z 18013KT 27/19 A2982 RMK A01 T02660191  RH  063%=      5-min Rain = 0
KCL2 160610Z 18011G17KT 27/19 A2982 RMK A01 T02660191  RH  063%=      5-min Rain = 0
KCL2 160611Z 17013KT 27/19 A2982 RMK A01 T02660191  RH  063%=      5-min Rain = 0
KCL2 160612Z 16010KT 27/19 A2982 RMK A01 T02660190  RH  063%=      5-min Rain = 0
KCL2 160613Z 17009KT 27/19 A2982 RMK A01 T02670190  RH  063%=      5-min Rain = 0
KCL2 160614Z 18010KT 27/19 A2982 RMK A01 T02670190  RH  063%=      5-min Rain = 0
KCL2 160615Z 18010KT 27/19 A2982 RMK A01 T02660190  RH  063%=      5-min Rain = 0
KCL2 160616Z 17009KT 27/19 A2982 RMK A01 T02650191  RH  064%=      5-min Rain = 0
KCL2 160617Z 17009KT 27/19 A2982 RMK A01 T02650191  RH  064%=      5-min Rain = 0
KCL2 160618Z 18006KT 27/19 A2982 RMK A01 T02650191  RH  064%=      5-min Rain = 0
KCL2 160619Z 19007KT 26/19 A2983 RMK A01 T02640190  RH  064%=      5-min Rain = 0
KCL2 160620Z 18007KT 26/19 A2983 RMK A01 T02640190  RH  064%=      5-min Rain = 0
KCL2 160621Z 17008KT 26/19 A2983 RMK A01 T02640190  RH  064%=      5-min Rain = 0
KCL2 160622Z 19005KT 26/19 A2983 RMK A01 T02640190  RH  064%=      5-min Rain = 0
KCL2 160623Z 20004KT 26/19 A2983 RMK A01 T02630190  RH  064%=      5-min Rain = 0
KCL2 160624Z 22003KT 26/19 A2983 RMK A01 T02630190  RH  064%=      5-min Rain = 0
KCL2 160625Z 21004KT 26/19 A2983 RMK A01 T02620191  RH  065%=      5-min Rain = 0
KCL2 160626Z 20006KT 26/19 A2983 RMK A01 T02600190  RH  065%=      5-min Rain = 0
KCL2 160627Z 21004KT 26/19 A2983 RMK A01 T02590190  RH  065%=      5-min Rain = 0
KCL2 160628Z 22003KT 26/19 A2983 RMK A01 T02590190  RH  065%=      5-min Rain = 0
KCL2 160629Z 22005KT 26/19 A2983 RMK A01 T02600190  RH  065%=      5-min Rain = 0
KCL2 160630Z 20004KT 26/19 A2983 RMK A01 T02600190  RH  065%=      5-min Rain = 0
KCL2 160631Z 21005KT 26/19 A2984 RMK A01 T02590190  RH  066%=      5-min Rain = 0
KCL2 160632Z 19006KT 26/19 A2984 RMK A01 T02580190  RH  066%=      5-min Rain = 0
KCL2 160633Z 19005KT 26/19 A2984 RMK A01 T02580190  RH  066%=      5-min Rain = 0
KCL2 160634Z 20005KT 26/19 A2984 RMK A01 T02580190  RH  066%=      5-min Rain = 0
KCL2 160635Z 21006KT 26/19 A2984 RMK A01 T02580190  RH  066%=      5-min Rain = 0
KCL2 160636Z 18005KT 26/19 A2984 RMK A01 T02590190  RH  066%=      5-min Rain = 0
KCL2 160637Z 19004KT 26/19 A2984 RMK A01 T02580190  RH  066%=      5-min Rain = 0
KCL2 160638Z 19004KT 26/19 A2984 RMK A01 T02580190  RH  066%=      5-min Rain = 0
KCL2 160639Z 19003KT 26/19 A2984 RMK A01 T02580190  RH  066%=      5-min Rain = 0
KCL2 160640Z 19005KT 26/19 A2984 RMK A01 T02570190  RH  066%=      5-min Rain = 0
KCL2 160641Z 19005KT 26/19 A2985 RMK A01 T02560190  RH  067%=      5-min Rain = 0
KCL2 160642Z 18005KT 26/19 A2985 RMK A01 T02550190  RH  067%=      5-min Rain = 0
KCL2 160643Z 18005KT 26/19 A2985 RMK A01 T02550189  RH  067%=      5-min Rain = 0
KCL2 160644Z 17004KT 26/19 A2985 RMK A01 T02560190  RH  067%=      5-min Rain = 0
KCL2 160645Z 19005KT 26/19 A2985 RMK A01 T02560190  RH  067%=      5-min Rain = 0
KCL2 160646Z 17006KT 26/19 A2985 RMK A01 T02550190  RH  067%=      5-min Rain = 0
KCL2 160647Z 17006KT 26/19 A2985 RMK A01 T02550190  RH  067%=      5-min Rain = 0
KCL2 160648Z 15004KT 26/19 A2986 RMK A01 T02550190  RH  067%=      5-min Rain = 0
KCL2 160649Z 15004KT 25/19 A2986 RMK A01 T02540190  RH  068%=      5-min Rain = 0
KCL2 160650Z 12004KT 25/19 A2986 RMK A01 T02540189  RH  067%=      5-min Rain = 0
KCL2 160651Z 12005KT 25/19 A2986 RMK A01 T02540190  RH  067%=      5-min Rain = 0
KCL2 160652Z 09005KT 25/19 A2986 RMK A01 T02540190  RH  068%=      5-min Rain = 0
KCL2 160653Z 08006KT 25/19 A2986 RMK A01 T02540190  RH  068%=      5-min Rain = 0
KCL2 160654Z 07007KT 25/19 A2986 RMK A01 T02530190  RH  068%=      5-min Rain = 0
KCL2 160655Z 06009KT 25/19 A2986 RMK A01 T02530190  RH  068%=      5-min Rain = 0
KCL2 160656Z 07009KT 25/19 A2986 RMK A01 T02530190  RH  068%=      5-min Rain = 0
KCL2 160657Z 07009KT 25/19 A2986 RMK A01 T02530191  RH  068%=      5-min Rain = 0
KCL2 160658Z 07008KT 25/19 A2986 RMK A01 T02530190  RH  068%=      5-min Rain = 0
KCL2 160659Z 07008KT 25/19 A2986 RMK A01 T02540189  RH  067%=      5-min Rain = 0
KCL2 160700Z 06009KT 25/19 A2986 RMK A01 T02540188  RH  067%=      5-min Rain = 0
KCL2 160701Z 06010KT 25/19 A2987 RMK A01 T02540188  RH  067%=      5-min Rain = 0
KCL2 160702Z 06009KT 25/19 A2986 RMK A01 T02530187  RH  067%=      5-min Rain = 0
KCL2 160703Z 06009KT 25/19 A2986 RMK A01 T02530187  RH  067%=      5-min Rain = 0
KCL2 160704Z 06009KT 25/19 A2987 RMK A01 T02520187  RH  067%=      5-min Rain = 0
KCL2 160705Z 06009KT 25/19 A2986 RMK A01 T02520187  RH  067%=      5-min Rain = 0
KCL2 160706Z 06008KT 25/19 A2986 RMK A01 T02510187  RH  068%=      5-min Rain = 0
KCL2 160707Z 06007KT 25/19 A2986 RMK A01 T02500187  RH  068%=      5-min Rain = 0
KCL2 160708Z 06007KT 25/19 A2986 RMK A01 T02490188  RH  069%=      5-min Rain = 0
KCL2 160709Z 07007KT 25/19 A2986 RMK A01 T02480187  RH  069%=      5-min Rain = 0
KCL2 160710Z 08006KT 25/19 A2986 RMK A01 T02470188  RH  070%=      5-min Rain = 0
KCL2 160711Z 09006KT 25/19 A2986 RMK A01 T02470187  RH  070%=      5-min Rain = 0
KCL2 160712Z 09007KT 25/19 A2986 RMK A01 T02480187  RH  069%=      5-min Rain = 0
KCL2 160713Z 10007KT 25/19 A2986 RMK A01 T02480188  RH  069%=      5-min Rain = 0
KCL2 160714Z 10007KT 25/19 A2986 RMK A01 T02480188  RH  070%=      5-min Rain = 0
KCL2 160715Z 11008KT 25/19 A2986 RMK A01 T02470188  RH  070%=      5-min Rain = 0
KCL2 160716Z 11008KT 25/19 A2985 RMK A01 T02460188  RH  070%=      5-min Rain = 0
KCL2 160717Z 10007KT 25/19 A2986 RMK A01 T02460188  RH  070%=      5-min Rain = 0
KCL2 160718Z 10008KT 25/19 A2985 RMK A01 T02460188  RH  070%=      5-min Rain = 0
KCL2 160719Z 10007KT 25/19 A2986 RMK A01 T02470188  RH  070%=      5-min Rain = 0
KCL2 160720Z 11007KT 25/19 A2986 RMK A01 T02490189  RH  069%=      5-min Rain = 0
KCL2 160721Z 12006KT 25/19 A2986 RMK A01 T02500189  RH  069%=      5-min Rain = 0
KCL2 160722Z 11005KT 25/19 A2986 RMK A01 T02500190  RH  069%=      5-min Rain = 0
KCL2 160723Z 11006KT 25/19 A2986 RMK A01 T02500189  RH  069%=      5-min Rain = 0
KCL2 160724Z 10006KT 25/19 A2986 RMK A01 T02490189  RH  069%=      5-min Rain = 0
KCL2 160725Z 09007KT 25/19 A2986 RMK A01 T02490189  RH  069%=      5-min Rain = 0
KCL2 160726Z 07008KT 25/19 A2986 RMK A01 T02490189  RH  069%=      5-min Rain = 0
KCL2 160727Z 08008KT 25/19 A2986 RMK A01 T02510188  RH  068%=      5-min Rain = 0
KCL2 160728Z 06010KT 25/19 A2986 RMK A01 T02530189  RH  067%=      5-min Rain = 0
KCL2 160729Z 06011KT 25/19 A2986 RMK A01 T02530189  RH  067%=      5-min Rain = 0
KCL2 160730Z 05012KT 25/19 A2986 RMK A01 T02530188  RH  067%=      5-min Rain = 0
KCL2 160731Z 04011KT 25/18 A2986 RMK A01 T02480184  RH  067%=      5-min Rain = 0
KCL2 160732Z 05009KT 24/18 A2986 RMK A01 T02420180  RH  069%=      5-min Rain = 0
KCL2 160733Z 06008KT 24/18 A2986 RMK A01 T02370180  RH  070%=      5-min Rain = 0
KCL2 160734Z 05010KT 23/18 A2986 RMK A01 T02340180  RH  071%=      5-min Rain = 0
KCL2 160735Z 06010KT 23/18 A2986 RMK A01 T02330179  RH  072%=      5-min Rain = 0
KCL2 160736Z 06012KT 23/18 A2986 RMK A01 T02320179  RH  072%=      5-min Rain = 0
KCL2 160737Z 07008KT 23/18 A2986 RMK A01 T02320178  RH  072%=      5-min Rain = 0
KCL2 160738Z 07008KT 23/18 A2986 RMK A01 T02310179  RH  072%=      5-min Rain = 0
KCL2 160739Z 08008KT 23/18 A2986 RMK A01 T02310179  RH  073%=      5-min Rain = 0
KCL2 160740Z 09007KT 23/18 A2986 RMK A01 T02320179  RH  072%=      5-min Rain = 0
KCL2 160741Z 09005KT 23/18 A2986 RMK A01 T02320179  RH  072%=      5-min Rain = 0
KCL2 160742Z 11005KT 23/18 A2986 RMK A01 T02320180  RH  072%=      5-min Rain = 0
KCL2 160743Z 12008KT 23/18 A2986 RMK A01 T02310180  RH  073%=      5-min Rain = 0
KCL2 160744Z 13008KT 23/18 A2986 RMK A01 T02290180  RH  074%=      5-min Rain = 0
KCL2 160745Z 14007KT 23/18 A2986 RMK A01 T02290180  RH  074%=      5-min Rain = 0
KCL2 160746Z 13006KT 23/18 A2986 RMK A01 T02310181  RH  074%=      5-min Rain = 0
KCL2 160747Z 13007KT 23/18 A2986 RMK A01 T02310181  RH  074%=      5-min Rain = 0
KCL2 160748Z 12007KT 23/18 A2986 RMK A01 T02310182  RH  074%=      5-min Rain = 0
KCL2 160749Z 12008KT 23/18 A2986 RMK A01 T02310183  RH  074%=      5-min Rain = 0
KCL2 160750Z 11008KT 23/18 A2986 RMK A01 T02310183  RH  074%=      5-min Rain = 0
KCL2 160751Z 11007KT 23/18 A2986 RMK A01 T02310183  RH  074%=      5-min Rain = 0
KCL2 160752Z 10006KT 23/18 A2986 RMK A01 T02320183  RH  074%=      5-min Rain = 0
KCL2 160753Z 10006KT 23/18 A2986 RMK A01 T02330184  RH  074%=      5-min Rain = 0
KCL2 160754Z 08006KT 23/18 A2986 RMK A01 T02330184  RH  074%=      5-min Rain = 0
KCL2 160755Z 06007KT 23/18 A2986 RMK A01 T02340184  RH  073%=      5-min Rain = 0
KCL2 160756Z 04011KT 23/18 A2986 RMK A01 T02320182  RH  073%=      5-min Rain = 0
KCL2 160757Z 05010KT 23/18 A2986 RMK A01 T02260176  RH  073%=      5-min Rain = 0
KCL2 160758Z 05011KT 22/17 A2986 RMK A01 T02200173  RH  075%=      5-min Rain = 0
KCL2 160759Z 06011KT 22/17 A2986 RMK A01 T02160172  RH  076%=      5-min Rain = 0
KCL2 160800Z 06010KT 21/17 A2986 RMK A01 T02140172  RH  077%=      5-min Rain = 0
KCL2 160801Z 06009KT 21/17 A2986 RMK A01 T02120172  RH  078%=      5-min Rain = 0
KCL2 160802Z 06009KT 21/17 A2986 RMK A01 T02110172  RH  078%=      5-min Rain = 0
KCL2 160803Z 07009KT 21/17 A2986 RMK A01 T02110172  RH  078%=      5-min Rain = 0
KCL2 160804Z 08007KT 21/17 A2986 RMK A01 T02100172  RH  078%=      5-min Rain = 0
KCL2 160805Z 08006KT 21/17 A2986 RMK A01 T02100172  RH  079%=      5-min Rain = 0
KCL2 160806Z 09008KT 21/17 A2985 RMK A01 T02110172  RH  079%=      5-min Rain = 0
KCL2 160807Z 10008KT 21/17 A2985 RMK A01 T02110173  RH  079%=      5-min Rain = 0
KCL2 160808Z 11008KT 21/17 A2985 RMK A01 T02110174  RH  079%=      5-min Rain = 0
KCL2 160809Z 12008KT 21/18 A2985 RMK A01 T02120175  RH  079%=      5-min Rain = 0
KCL2 160810Z 12009KT 21/18 A2985 RMK A01 T02120175  RH  079%=      5-min Rain = 0
KCL2 160811Z 12008KT 21/18 A2984 RMK A01 T02130176  RH  079%=      5-min Rain = 0
KCL2 160812Z 11009KT 21/18 A2984 RMK A01 T02140176  RH  079%=      5-min Rain = 0
KCL2 160813Z 11008KT 21/18 A2984 RMK A01 T02140175  RH  079%=      5-min Rain = 0
KCL2 160814Z 11008KT 22/18 A2984 RMK A01 T02150176  RH  078%=      5-min Rain = 0
KCL2 160815Z 10008KT 21/18 A2984 RMK A01 T02140175  RH  078%=      5-min Rain = 0
KCL2 160816Z 10007KT 21/18 A2984 RMK A01 T02140175  RH  078%=      5-min Rain = 0
KCL2 160817Z 09008KT 21/17 A2984 RMK A01 T02130174  RH  079%=      5-min Rain = 0
KCL2 160818Z 07008KT 21/17 A2984 RMK A01 T02120174  RH  079%=      5-min Rain = 0
KCL2 160819Z 07008KT 21/17 A2984 RMK A01 T02110173  RH  079%=      5-min Rain = 0
KCL2 160820Z 06010KT 21/17 A2984 RMK A01 T02100172  RH  079%=      5-min Rain = 0
KCL2 160821Z 06010KT 21/17 A2985 RMK A01 T02080171  RH  079%=      5-min Rain = 0
KCL2 160822Z 06010KT 21/17 A2985 RMK A01 T02060170  RH  080%=      5-min Rain = 0
KCL2 160823Z 07011KT 21/17 A2985 RMK A01 T02050170  RH  080%=      5-min Rain = 0
KCL2 160824Z 06011KT 20/17 A2985 RMK A01 T02040169  RH  081%=      5-min Rain = 0
KCL2 160825Z 06011KT 20/17 A2985 RMK A01 T02020168  RH  081%=      5-min Rain = 0
KCL2 160826Z 07012KT 20/17 A2985 RMK A01 T02020168  RH  081%=      5-min Rain = 0
KCL2 160827Z 06011KT 20/17 A2985 RMK A01 T02020167  RH  081%=      5-min Rain = 0
KCL2 160828Z 07011KT 20/17 A2985 RMK A01 T02020167  RH  080%=      5-min Rain = 0
KCL2 160829Z 07009KT 20/17 A2985 RMK A01 T02020167  RH  080%=      5-min Rain = 0
KCL2 160830Z 07009KT 20/17 A2985 RMK A01 T02020167  RH  080%=      5-min Rain = 0
KCL2 160831Z 07008KT 20/17 A2985 RMK A01 T02020167  RH  080%=      5-min Rain = 0
KCL2 160832Z 06008KT 20/17 A2985 RMK A01 T02020167  RH  080%=      5-min Rain = 0
KCL2 160833Z 06008KT 20/17 A2986 RMK A01 T02020167  RH  080%=      5-min Rain = 0
KCL2 160834Z 05007KT 20/17 A2986 RMK A01 T02020167  RH  080%=      5-min Rain = 0
KCL2 160835Z 05008KT 20/17 A2986 RMK A01 T02010167  RH  081%=      5-min Rain = 0
KCL2 160836Z 05008KT 20/17 A2986 RMK A01 T02000167  RH  081%=      5-min Rain = 0
KCL2 160837Z 04008KT 20/17 A2987 RMK A01 T02000166  RH  081%=      5-min Rain = 0
KCL2 160838Z 04007KT 20/17 A2987 RMK A01 T01990166  RH  081%=      5-min Rain = 0
KCL2 160839Z 05007KT 20/17 A2987 RMK A01 T01990166  RH  082%=      5-min Rain = 0
KCL2 160840Z 05008KT 20/17 A2987 RMK A01 T01980166  RH  082%=      5-min Rain = 0
KCL2 160841Z 05009KT 20/17 A2987 RMK A01 T01970166  RH  082%=      5-min Rain = 0
KCL2 160842Z 05010KT 20/17 A2987 RMK A01 T01970166  RH  082%=      5-min Rain = 0
KCL2 160843Z 04009KT 20/17 A2987 RMK A01 T01970166  RH  082%=      5-min Rain = 0
KCL2 160844Z 04010KT 20/17 A2987 RMK A01 T01970166  RH  083%=      5-min Rain = 0
KCL2 160845Z 04011KT 20/17 A2987 RMK A01 T01970167  RH  083%=      5-min Rain = 0
KCL2 160846Z 03010KT 20/17 A2987 RMK A01 T01960166  RH  083%=      5-min Rain = 0
KCL2 160847Z 04010KT 20/17 A2987 RMK A01 T01950166  RH  084%=      5-min Rain = 0
KCL2 160848Z 03008KT 19/17 A2987 RMK A01 T01940166  RH  084%=      5-min Rain = 0
KCL2 160849Z 03009KT 19/17 A2987 RMK A01 T01940167  RH  084%=      5-min Rain = 0
KCL2 160850Z 03007KT 19/17 A2987 RMK A01 T01940166  RH  084%=      5-min Rain = 0
KCL2 160851Z 04008KT 19/17 A2987 RMK A01 T01940167  RH  084%=      5-min Rain = 0
KCL2 160852Z 05006KT 19/17 A2987 RMK A01 T01930167  RH  084%=      5-min Rain = 0
KCL2 160853Z 06007KT 19/17 A2987 RMK A01 T01930167  RH  085%=      5-min Rain = 0
KCL2 160854Z 06010KT 19/17 A2987 RMK A01 T01930167  RH  085%=      5-min Rain = 0
KCL2 160855Z 06012KT 19/17 A2987 RMK A01 T01930167  RH  085%=      5-min Rain = 0
KCL2 160856Z 06013KT 19/17 A2986 RMK A01 T01930167  RH  084%=      5-min Rain = 0
KCL2 160857Z 06012KT 19/17 A2986 RMK A01 T01940167  RH  085%=      5-min Rain = 0
KCL2 160858Z 06013KT 19/17 A2986 RMK A01 T01930167  RH  085%=      5-min Rain = 0
KCL2 160859Z 06013KT 19/17 A2986 RMK A01 T01920167  RH  085%=      5-min Rain = 0
KCL2 160900Z 06012KT 19/17 A2986 RMK A01 T01920167  RH  086%=      5-min Rain = 0
KCL2 160901Z 05014KT 19/17 A2986 RMK A01 T01920167  RH  086%=      5-min Rain = 0
KCL2 160902Z 05013KT 19/17 A2987 RMK A01 T01910168  RH  086%=      5-min Rain = 0
KCL2 160903Z 05011KT 19/17 A2986 RMK A01 T01900167  RH  087%=      5-min Rain = 0
KCL2 160904Z 06010KT 19/17 A2987 RMK A01 T01900168  RH  087%=      5-min Rain = 0
KCL2 160905Z 06011KT 19/17 A2986 RMK A01 T01900168  RH  087%=      5-min Rain = 0
KCL2 160906Z 06011KT 19/17 A2986 RMK A01 T01900168  RH  087%=      5-min Rain = 0
KCL2 160907Z 07011KT 19/17 A2986 RMK A01 T01900168  RH  087%=      5-min Rain = 0
KCL2 160908Z 08009KT 19/17 A2986 RMK A01 T01900168  RH  087%=      5-min Rain = 0
KCL2 160909Z 08009KT 19/17 A2986 RMK A01 T01900168  RH  087%=      5-min Rain = 0
KCL2 160910Z 07009KT 19/17 A2986 RMK A01 T01900168  RH  087%=      5-min Rain = 0
KCL2 160911Z 06009KT 19/17 A2986 RMK A01 T01910169  RH  087%=      5-min Rain = 0
KCL2 160912Z 06009KT 19/17 A2986 RMK A01 T01910169  RH  087%=      5-min Rain = 0
KCL2 160913Z 06011KT 19/17 A2987 RMK A01 T01910169  RH  087%=      5-min Rain = 0
KCL2 160914Z 05011KT 19/17 A2987 RMK A01 T01910169  RH  087%=      5-min Rain = 0
KCL2 160915Z 04010KT 19/17 A2987 RMK A01 T01900169  RH  088%=      5-min Rain = 0
KCL2 160916Z 05011KT 19/17 A2987 RMK A01 T01890169  RH  088%=      5-min Rain = 0
KCL2 160917Z 05012KT 19/17 A2987 RMK A01 T01890169  RH  088%=      5-min Rain = 0
KCL2 160918Z 05011KT 19/17 A2987 RMK A01 T01890170  RH  089%=      5-min Rain = 0
KCL2 160919Z 06012KT 19/17 A2987 RMK A01 T01890170  RH  089%=      5-min Rain = 0
KCL2 160920Z 06012KT 19/17 A2987 RMK A01 T01890170  RH  089%=      5-min Rain = 0
KCL2 160921Z 06011KT 19/17 A2987 RMK A01 T01890170  RH  089%=      5-min Rain = 0
KCL2 160922Z 06011KT 19/17 A2987 RMK A01 T01890170  RH  088%=      5-min Rain = 0
KCL2 160923Z 06012KT 19/17 A2987 RMK A01 T01890170  RH  088%=      5-min Rain = 0
KCL2 160924Z 06013KT 19/17 A2987 RMK A01 T01900170  RH  088%=      5-min Rain = 0
KCL2 160925Z 06012KT 19/17 A2987 RMK A01 T01910170  RH  088%=      5-min Rain = 0
KCL2 160926Z 06011KT 19/17 A2987 RMK A01 T01910170  RH  088%=      5-min Rain = 0
KCL2 160927Z 06011KT 19/17 A2987 RMK A01 T01910170  RH  088%=      5-min Rain = 0
KCL2 160928Z 07012KT 19/17 A2987 RMK A01 T01910170  RH  088%=      5-min Rain = 0
KCL2 160929Z 07012KT 19/17 A2987 RMK A01 T01910170  RH  088%=      5-min Rain = 0
KCL2 160930Z 07012KT 19/17 A2987 RMK A01 T01910170  RH  088%=      5-min Rain = 0
KCL2 160931Z 07012KT 19/17 A2987 RMK A01 T01910170  RH  087%=      5-min Rain = 0
KCL2 160932Z 07011KT 19/17 A2987 RMK A01 T01920170  RH  087%=      5-min Rain = 0
KCL2 160933Z 08010KT 19/17 A2986 RMK A01 T01920170  RH  087%=      5-min Rain = 0
KCL2 160934Z 07010KT 19/17 A2986 RMK A01 T01930170  RH  087%=      5-min Rain = 0
KCL2 160935Z 07010KT 19/17 A2986 RMK A01 T01930170  RH  086%=      5-min Rain = 0
KCL2 160936Z 08009KT 19/17 A2986 RMK A01 T01930170  RH  086%=      5-min Rain = 0
KCL2 160937Z 07011KT 19/17 A2986 RMK A01 T01940170  RH  086%=      5-min Rain = 0
KCL2 160938Z 08010KT 20/17 A2986 RMK A01 T01950170  RH  086%=      5-min Rain = 0
KCL2 160939Z 08009KT 20/17 A2986 RMK A01 T01950170  RH  086%=      5-min Rain = 0
KCL2 160940Z 08009KT 20/17 A2986 RMK A01 T01950170  RH  086%=      5-min Rain = 0
KCL2 160941Z 09011KT 20/17 A2986 RMK A01 T01950170  RH  086%=      5-min Rain = 0
KCL2 160942Z 08010KT 20/17 A2986 RMK A01 T01950170  RH  086%=      5-min Rain = 0
KCL2 160943Z 08011KT 20/17 A2986 RMK A01 T01950170  RH  086%=      5-min Rain = 0
KCL2 160944Z 08010KT 20/17 A2986 RMK A01 T01950170  RH  086%=      5-min Rain = 0
KCL2 160945Z 08011KT 20/17 A2986 RMK A01 T01950170  RH  086%=      5-min Rain = 0
KCL2 160946Z 08010KT 20/17 A2986 RMK A01 T01950170  RH  086%=      5-min Rain = 0
KCL2 160947Z 09010KT 20/17 A2986 RMK A01 T01950171  RH  086%=      5-min Rain = 0
KCL2 160948Z 08010KT 20/17 A2986 RMK A01 T01950171  RH  086%=      5-min Rain = 0
KCL2 160949Z 08011KT 20/17 A2986 RMK A01 T01950170  RH  086%=      5-min Rain = 0
KCL2 160950Z 08011KT 20/17 A2986 RMK A01 T01950171  RH  086%=      5-min Rain = 0
KCL2 160951Z 08010KT 20/17 A2986 RMK A01 T01960171  RH  085%=      5-min Rain = 0
KCL2 160952Z 08011KT 20/17 A2986 RMK A01 T01960170  RH  085%=      5-min Rain = 0
KCL2 160953Z 08009KT 20/17 A2986 RMK A01 T01960170  RH  085%=      5-min Rain = 0
KCL2 160954Z 08010KT 20/17 A2986 RMK A01 T01960171  RH  085%=      5-min Rain = 0
KCL2 160955Z 08009KT 20/17 A2987 RMK A01 T01960171  RH  085%=      5-min Rain = 0
KCL2 160956Z 09010KT 20/17 A2986 RMK A01 T01960171  RH  085%=      5-min Rain = 0
KCL2 160957Z 09009KT 20/17 A2986 RMK A01 T01960171  RH  086%=      5-min Rain = 0
KCL2 160958Z 09008KT 20/17 A2986 RMK A01 T01950171  RH  086%=      5-min Rain = 0
KCL2 160959Z 08010KT 20/17 A2986 RMK A01 T01950171  RH  086%=      5-min Rain = 0
KCL2 161000Z 09007KT 20/17 A2986 RMK A01 T01950171  RH  086%=      5-min Rain = 0
KCL2 161001Z 09008KT 20/17 A2987 RMK A01 T01950171  RH  086%=      5-min Rain = 0
KCL2 161002Z 09010KT 20/17 A2987 RMK A01 T01950171  RH  086%=      5-min Rain = 0
KCL2 161003Z 09010KT 20/17 A2987 RMK A01 T01950171  RH  086%=      5-min Rain = 0
KCL2 161004Z 09010KT 20/17 A2987 RMK A01 T01950171  RH  086%=      5-min Rain = 0
KCL2 161005Z 08009KT 20/17 A2987 RMK A01 T01950171  RH  086%=      5-min Rain = 0
KCL2 161006Z 08009KT 20/17 A2987 RMK A01 T01950171  RH  086%=      5-min Rain = 0
KCL2 161007Z 08009KT 20/17 A2987 RMK A01 T01960171  RH  086%=      5-min Rain = 0
KCL2 161008Z 07008KT 20/17 A2987 RMK A01 T01960171  RH  085%=      5-min Rain = 0
KCL2 161009Z 07010KT 20/17 A2987 RMK A01 T01960171  RH  085%=      5-min Rain = 0
KCL2 161010Z 07010KT 20/17 A2987 RMK A01 T01960171  RH  085%=      5-min Rain = 0
KCL2 161011Z 08010KT 20/17 A2987 RMK A01 T01960171  RH  086%=      5-min Rain = 0
KCL2 161012Z 08008KT 20/17 A2987 RMK A01 T01960171  RH  086%=      5-min Rain = 0
KCL2 161013Z 09010KT 20/17 A2987 RMK A01 T01950171  RH  086%=      5-min Rain = 0
KCL2 161014Z 09009KT 20/17 A2987 RMK A01 T01950171  RH  086%=      5-min Rain = 0
KCL2 161015Z 09010KT 19/17 A2987 RMK A01 T01940171  RH  087%=      5-min Rain = 0
KCL2 161016Z 09012KT 19/17 A2987 RMK A01 T01940171  RH  087%=      5-min Rain = 0
KCL2 161017Z 09010KT 19/17 A2987 RMK A01 T01940172  RH  087%=      5-min Rain = 0
KCL2 161018Z 09011KT 19/17 A2987 RMK A01 T01940171  RH  087%=      5-min Rain = 0
KCL2 161019Z 09010KT 19/17 A2987 RMK A01 T01940172  RH  087%=      5-min Rain = 0
KCL2 161020Z 09011KT 19/17 A2987 RMK A01 T01930171  RH  087%=      5-min Rain = 0
KCL2 161021Z 09010KT 19/17 A2987 RMK A01 T01930171  RH  087%=      5-min Rain = 0
KCL2 161022Z 08009KT 19/17 A2987 RMK A01 T01930171  RH  087%=      5-min Rain = 0
KCL2 161023Z 08009KT 19/17 A2987 RMK A01 T01940171  RH  087%=      5-min Rain = 0
KCL2 161024Z 08009KT 19/17 A2987 RMK A01 T01930171  RH  087%=      5-min Rain = 0
KCL2 161025Z 08011KT 19/17 A2987 RMK A01 T01940171  RH  087%=      5-min Rain = 0
KCL2 161026Z 08009KT 19/17 A2987 RMK A01 T01940171  RH  086%=      5-min Rain = 0
KCL2 161027Z 07010KT 19/17 A2988 RMK A01 T01940171  RH  086%=      5-min Rain = 0
KCL2 161028Z 08010KT 19/17 A2988 RMK A01 T01940171  RH  086%=      5-min Rain = 0
KCL2 161029Z 08009KT 19/17 A2988 RMK A01 T01940171  RH  086%=      5-min Rain = 0
KCL2 161030Z 08010KT 19/17 A2988 RMK A01 T01940171  RH  087%=      5-min Rain = 0
KCL2 161031Z 08010KT 19/17 A2988 RMK A01 T01940172  RH  087%=      5-min Rain = 0
KCL2 161032Z 09010KT 19/17 A2988 RMK A01 T01940172  RH  087%=      5-min Rain = 0
KCL2 161033Z 09011KT 19/17 A2988 RMK A01 T01940172  RH  087%=      5-min Rain = 0
KCL2 161034Z 09010KT 19/17 A2988 RMK A01 T01930172  RH  087%=      5-min Rain = 0
KCL2 161035Z 09012KT 19/17 A2988 RMK A01 T01930171  RH  087%=      5-min Rain = 0
KCL2 161036Z 09011KT 19/17 A2988 RMK A01 T01930171  RH  087%=      5-min Rain = 0
KCL2 161037Z 09011KT 19/17 A2988 RMK A01 T01930171  RH  087%=      5-min Rain = 0
KCL2 161038Z 09011KT 19/17 A2988 RMK A01 T01930171  RH  087%=      5-min Rain = 0
KCL2 161039Z 09011KT 19/17 A2988 RMK A01 T01930171  RH  087%=      5-min Rain = 0
KCL2 161040Z 09011KT 19/17 A2988 RMK A01 T01930171  RH  087%=      5-min Rain = 0
KCL2 161041Z 08010KT 19/17 A2988 RMK A01 T01930171  RH  087%=      5-min Rain = 0
KCL2 161042Z 08011KT 19/17 A2988 RMK A01 T01930171  RH  087%=      5-min Rain = 0
KCL2 161043Z 08010KT 19/17 A2988 RMK A01 T01930171  RH  087%=      5-min Rain = 0
KCL2 161044Z 08010KT 19/17 A2988 RMK A01 T01930171  RH  087%=      5-min Rain = 0
KCL2 161045Z 08010KT 19/17 A2988 RMK A01 T01930171  RH  087%=      5-min Rain = 0
KCL2 161046Z 08011KT 19/17 A2988 RMK A01 T01940172  RH  087%=      5-min Rain = 0
KCL2 161047Z 09010KT 19/17 A2988 RMK A01 T01930171  RH  087%=      5-min Rain = 0
KCL2 161048Z 08011KT 19/17 A2988 RMK A01 T01930171  RH  087%=      5-min Rain = 0
KCL2 161049Z 09010KT 19/17 A2988 RMK A01 T01930171  RH  087%=      5-min Rain = 0
KCL2 161050Z 08010KT 19/17 A2988 RMK A01 T01930171  RH  087%=      5-min Rain = 0
KCL2 161051Z 08010KT 19/17 A2989 RMK A01 T01930171  RH  087%=      5-min Rain = 0
KCL2 161052Z 08010KT 19/17 A2989 RMK A01 T01940171  RH  087%=      5-min Rain = 0
KCL2 161053Z 08010KT 19/17 A2988 RMK A01 T01940171  RH  087%=      5-min Rain = 0
KCL2 161054Z 08010KT 19/17 A2988 RMK A01 T01940172  RH  087%=      5-min Rain = 0
KCL2 161055Z 09010KT 19/17 A2988 RMK A01 T01940171  RH  087%=      5-min Rain = 0
KCL2 161056Z 09009KT 19/17 A2988 RMK A01 T01940172  RH  087%=      5-min Rain = 0
KCL2 161057Z 09010KT 19/17 A2988 RMK A01 T01940172  RH  087%=      5-min Rain = 0
KCL2 161058Z 08010KT 19/17 A2989 RMK A01 T01940172  RH  087%=      5-min Rain = 0
KCL2 161059Z 09008KT 19/17 A2988 RMK A01 T01940172  RH  087%=      5-min Rain = 0
KCL2 161100Z 09009KT 19/17 A2988 RMK A01 T01940172  RH  087%=      5-min Rain = 0
KCL2 161101Z 08010KT 19/17 A2988 RMK A01 T01930172  RH  087%=      5-min Rain = 0
KCL2 161102Z 09008KT 19/17 A2988 RMK A01 T01930172  RH  087%=      5-min Rain = 0
KCL2 161103Z 09009KT 19/17 A2988 RMK A01 T01930172  RH  087%=      5-min Rain = 0
KCL2 161104Z 09009KT 19/17 A2988 RMK A01 T01930172  RH  087%=      5-min Rain = 0
KCL2 161105Z 08009KT 19/17 A2988 RMK A01 T01930172  RH  087%=      5-min Rain = 0
KCL2 161106Z 08009KT 19/17 A2988 RMK A01 T01930172  RH  087%=      5-min Rain = 0
KCL2 161107Z 08009KT 19/17 A2988 RMK A01 T01930172  RH  087%=      5-min Rain = 0
KCL2 161108Z 08009KT 19/17 A2989 RMK A01 T01930171  RH  087%=      5-min Rain = 0
KCL2 161109Z 08009KT 19/17 A2989 RMK A01 T01940172  RH  087%=      5-min Rain = 0
KCL2 161110Z 08009KT 19/17 A2989 RMK A01 T01940172  RH  087%=      5-min Rain = 0
KCL2 161111Z 08009KT 19/17 A2989 RMK A01 T01940172  RH  087%=      5-min Rain = 0
KCL2 161112Z 08009KT 19/17 A2989 RMK A01 T01940172  RH  087%=      5-min Rain = 0
KCL2 161113Z 09009KT 19/17 A2989 RMK A01 T01940172  RH  087%=      5-min Rain = 0
KCL2 161114Z 08009KT 19/17 A2989 RMK A01 T01940172  RH  087%=      5-min Rain = 0
KCL2 161115Z 08008KT 19/17 A2989 RMK A01 T01940172  RH  087%=      5-min Rain = 0
KCL2 161116Z 08009KT 19/17 A2989 RMK A01 T01940172  RH  087%=      5-min Rain = 0
KCL2 161117Z 09008KT 19/17 A2989 RMK A01 T01940172  RH  087%=      5-min Rain = 0
KCL2 161118Z 09008KT 19/17 A2989 RMK A01 T01940173  RH  088%=      5-min Rain = 0
KCL2 161119Z 09009KT 19/17 A2989 RMK A01 T01930173  RH  088%=      5-min Rain = 0
KCL2 161120Z 09009KT 19/17 A2989 RMK A01 T01930172  RH  088%=      5-min Rain = 0
KCL2 161121Z 09009KT 19/17 A2989 RMK A01 T01930172  RH  088%=      5-min Rain = 0
KCL2 161122Z 09009KT 19/17 A2989 RMK A01 T01930172  RH  088%=      5-min Rain = 0
KCL2 161123Z 08007KT 19/17 A2989 RMK A01 T01930172  RH  088%=      5-min Rain = 0
KCL2 161124Z 08008KT 19/17 A2989 RMK A01 T01930173  RH  088%=      5-min Rain = 0
KCL2 161125Z 09010KT 19/17 A2989 RMK A01 T01940173  RH  088%=      5-min Rain = 0
KCL2 161126Z 09008KT 19/17 A2989 RMK A01 T01930173  RH  088%=      5-min Rain = 0
KCL2 161127Z 08007KT 19/17 A2989 RMK A01 T01940173  RH  088%=      5-min Rain = 0
KCL2 161128Z 09007KT 19/17 A2989 RMK A01 T01930173  RH  088%=      5-min Rain = 0
KCL2 161129Z 09007KT 19/17 A2989 RMK A01 T01930173  RH  088%=      5-min Rain = 0
KCL2 161130Z 09008KT 19/17 A2989 RMK A01 T01930173  RH  088%=      5-min Rain = 0
KCL2 161131Z 10007KT 19/17 A2989 RMK A01 T01930173  RH  088%=      5-min Rain = 0
KCL2 161132Z 10007KT 19/17 A2988 RMK A01 T01930173  RH  088%=      5-min Rain = 0
KCL2 161133Z 11008KT 19/17 A2988 RMK A01 T01920173  RH  089%=      5-min Rain = 0
KCL2 161134Z 10008KT 19/17 A2988 RMK A01 T01920173  RH  089%=      5-min Rain = 0
KCL2 161135Z 11008KT 19/17 A2988 RMK A01 T01920173  RH  088%=      5-min Rain = 0
KCL2 161136Z 11008KT 19/17 A2988 RMK A01 T01920173  RH  088%=      5-min Rain = 0
KCL2 161137Z 11008KT 19/17 A2988 RMK A01 T01920173  RH  089%=      5-min Rain = 0
KCL2 161138Z 11007KT 19/17 A2988 RMK A01 T01920173  RH  089%=      5-min Rain = 0
KCL2 161139Z 11008KT 19/17 A2988 RMK A01 T01920173  RH  089%=      5-min Rain = 0
KCL2 161140Z 11008KT 19/17 A2988 RMK A01 T01920173  RH  089%=      5-min Rain = 0
KCL2 161141Z 11008KT 19/17 A2988 RMK A01 T01920173  RH  089%=      5-min Rain = 0
KCL2 161142Z 10007KT 19/17 A2988 RMK A01 T01920173  RH  089%=      5-min Rain = 0
KCL2 161143Z 10007KT 19/17 A2988 RMK A01 T01910173  RH  089%=      5-min Rain = 0
KCL2 161144Z 11007KT 19/17 A2988 RMK A01 T01910173  RH  089%=      5-min Rain = 0
KCL2 161145Z 10008KT 19/17 A2988 RMK A01 T01920174  RH  089%=      5-min Rain = 0
KCL2 161146Z 11008KT 19/17 A2988 RMK A01 T01920173  RH  089%=      5-min Rain = 0
KCL2 161147Z 11008KT 19/17 A2988 RMK A01 T01920173  RH  089%=      5-min Rain = 0
KCL2 161148Z 11008KT 19/17 A2988 RMK A01 T01920173  RH  089%=      5-min Rain = 0
KCL2 161149Z 11007KT 19/17 A2988 RMK A01 T01920173  RH  089%=      5-min Rain = 0
KCL2 161150Z 10008KT 19/17 A2988 RMK A01 T01920174  RH  089%=      5-min Rain = 0
KCL2 161151Z 11008KT 19/17 A2988 RMK A01 T01920174  RH  089%=      5-min Rain = 0
KCL2 161152Z 11009KT 19/17 A2988 RMK A01 T01920174  RH  089%=      5-min Rain = 0
KCL2 161153Z 11008KT 19/17 A2988 RMK A01 T01920174  RH  089%=      5-min Rain = 0
KCL2 161154Z 11009KT 19/17 A2988 RMK A01 T01930174  RH  089%=      5-min Rain = 0
KCL2 161155Z 11008KT 19/17 A2988 RMK A01 T01930174  RH  089%=      5-min Rain = 0
KCL2 161156Z 11009KT 19/17 A2988 RMK A01 T01930174  RH  089%=      5-min Rain = 0
KCL2 161157Z 12009KT 19/17 A2988 RMK A01 T01930174  RH  089%=      5-min Rain = 0
KCL2 161158Z 12008KT 19/17 A2988 RMK A01 T01930174  RH  089%=      5-min Rain = 0
KCL2 161159Z 12008KT 19/17 A2988 RMK A01 T01930174  RH  089%=      5-min Rain = 0
KCL2 161200Z 12009KT 19/18 A2988 RMK A01 T01930175  RH  089%=      5-min Rain = 0
KCL2 161201Z 12010KT 19/18 A2988 RMK A01 T01930175  RH  089%=      5-min Rain = 0
KCL2 161202Z 12009KT 19/18 A2988 RMK A01 T01930175  RH  089%=      5-min Rain = 0
KCL2 161203Z 12009KT 19/18 A2988 RMK A01 T01940175  RH  089%=      5-min Rain = 0
KCL2 161204Z 12009KT 19/18 A2988 RMK A01 T01940175  RH  089%=      5-min Rain = 0
KCL2 161205Z 13008KT 19/18 A2988 RMK A01 T01940175  RH  089%=      5-min Rain = 0
KCL2 161206Z 12009KT 19/18 A2988 RMK A01 T01940175  RH  089%=      5-min Rain = 0
KCL2 161207Z 12009KT 20/18 A2988 RMK A01 T01950176  RH  089%=      5-min Rain = 0
KCL2 161208Z 12010KT 20/18 A2988 RMK A01 T01950175  RH  089%=      5-min Rain = 0
KCL2 161209Z 12010KT 20/18 A2988 RMK A01 T01950176  RH  088%=      5-min Rain = 0
KCL2 161210Z 12010KT 20/18 A2988 RMK A01 T01950176  RH  089%=      5-min Rain = 0
KCL2 161211Z 12010KT 20/18 A2988 RMK A01 T01960176  RH  089%=      5-min Rain = 0
KCL2 161212Z 12010KT 20/18 A2988 RMK A01 T01970177  RH  088%=      5-min Rain = 0
KCL2 161213Z 13010KT 20/18 A2988 RMK A01 T01970177  RH  088%=      5-min Rain = 0
KCL2 161214Z 13008KT 20/18 A2988 RMK A01 T01970177  RH  088%=      5-min Rain = 0
KCL2 161215Z 13009KT 20/18 A2988 RMK A01 T01980177  RH  088%=      5-min Rain = 0
KCL2 161216Z 12011KT 20/18 A2988 RMK A01 T01980177  RH  087%=      5-min Rain = 0
KCL2 161217Z 12010KT 20/18 A2988 RMK A01 T01980177  RH  087%=      5-min Rain = 0
KCL2 161218Z 12009KT 20/18 A2988 RMK A01 T01990177  RH  087%=      5-min Rain = 0
KCL2 161219Z 12010KT 20/18 A2988 RMK A01 T01990177  RH  087%=      5-min Rain = 0
KCL2 161220Z 13010KT 20/18 A2988 RMK A01 T01990177  RH  087%=      5-min Rain = 0
KCL2 161221Z 13009KT 20/18 A2988 RMK A01 T02010178  RH  087%=      5-min Rain = 0
KCL2 161222Z 13008KT 20/18 A2988 RMK A01 T02010178  RH  087%=      5-min Rain = 0
KCL2 161223Z 13009KT 20/18 A2988 RMK A01 T02020179  RH  087%=      5-min Rain = 0
KCL2 161224Z 13008KT 20/18 A2988 RMK A01 T02030179  RH  086%=      5-min Rain = 0
KCL2 161225Z 13007KT 20/18 A2988 RMK A01 T02020178  RH  086%=      5-min Rain = 0
KCL2 161226Z 13008KT 20/18 A2988 RMK A01 T02030179  RH  086%=      5-min Rain = 0
KCL2 161227Z 13009KT 20/18 A2988 RMK A01 T02030179  RH  086%=      5-min Rain = 0
KCL2 161228Z 13008KT 20/18 A2988 RMK A01 T02030180  RH  086%=      5-min Rain = 0
KCL2 161229Z 13009KT 20/18 A2988 RMK A01 T02040181  RH  086%=      5-min Rain = 0
KCL2 161230Z 13008KT 21/18 A2988 RMK A01 T02050181  RH  086%=      5-min Rain = 0
KCL2 161231Z 13009KT 21/18 A2988 RMK A01 T02060181  RH  086%=      5-min Rain = 0
KCL2 161232Z 14009KT 21/18 A2988 RMK A01 T02060181  RH  086%=      5-min Rain = 0
KCL2 161233Z 13008KT 21/18 A2988 RMK A01 T02060181  RH  086%=      5-min Rain = 0
KCL2 161234Z 14007KT 21/18 A2988 RMK A01 T02070181  RH  085%=      5-min Rain = 0
KCL2 161235Z 14008KT 21/18 A2988 RMK A01 T02070183  RH  086%=      5-min Rain = 0
KCL2 161236Z 14009KT 21/18 A2988 RMK A01 T02080183  RH  085%=      5-min Rain = 0
KCL2 161237Z 13008KT 21/18 A2988 RMK A01 T02080182  RH  085%=      5-min Rain = 0
KCL2 161238Z 14008KT 21/18 A2988 RMK A01 T02090183  RH  085%=      5-min Rain = 0
KCL2 161239Z 14008KT 21/18 A2988 RMK A01 T02090183  RH  085%=      5-min Rain = 0
KCL2 161240Z 13009KT 21/18 A2988 RMK A01 T02090184  RH  085%=      5-min Rain = 0
KCL2 161241Z 14008KT 21/18 A2988 RMK A01 T02100184  RH  085%=      5-min Rain = 0
KCL2 161242Z 14008KT 21/19 A2988 RMK A01 T02100185  RH  085%=      5-min Rain = 0
KCL2 161243Z 14009KT 21/19 A2988 RMK A01 T02110186  RH  086%=      5-min Rain = 0
KCL2 161244Z 14008KT 21/19 A2988 RMK A01 T02120187  RH  086%=      5-min Rain = 0
KCL2 161245Z 14009KT 21/19 A2988 RMK A01 T02130188  RH  086%=      5-min Rain = 0
KCL2 161246Z 14008KT 21/19 A2988 RMK A01 T02130188  RH  085%=      5-min Rain = 0
KCL2 161247Z 14008KT 21/19 A2988 RMK A01 T02140188  RH  085%=      5-min Rain = 0
KCL2 161248Z 15007KT 22/19 A2988 RMK A01 T02150189  RH  085%=      5-min Rain = 0
KCL2 161249Z 15007KT 22/19 A2988 RMK A01 T02150189  RH  085%=      5-min Rain = 0
KCL2 161250Z 15007KT 22/19 A2988 RMK A01 T02160191  RH  086%=      5-min Rain = 0
KCL2 161251Z 15008KT 22/19 A2988 RMK A01 T02160191  RH  085%=      5-min Rain = 0
KCL2 161252Z 15009KT 22/19 A2988 RMK A01 T02170192  RH  086%=      5-min Rain = 0
KCL2 161253Z 16010KT 22/19 A2988 RMK A01 T02180193  RH  086%=      5-min Rain = 0
KCL2 161254Z 15009KT 22/19 A2988 RMK A01 T02190193  RH  085%=      5-min Rain = 0
KCL2 161255Z 15009KT 22/19 A2988 RMK A01 T02190194  RH  085%=      5-min Rain = 0
KCL2 161256Z 15009KT 22/20 A2988 RMK A01 T02210195  RH  085%=      5-min Rain = 0
KCL2 161257Z 15008KT 22/20 A2988 RMK A01 T02210195  RH  085%=      5-min Rain = 0
KCL2 161258Z 15009KT 22/20 A2988 RMK A01 T02220196  RH  086%=      5-min Rain = 0
KCL2 161259Z 16009KT 22/20 A2988 RMK A01 T02230198  RH  085%=      5-min Rain = 0
KCL2 161300Z 15009KT 22/20 A2988 RMK A01 T02240199  RH  085%=      5-min Rain = 0
KCL2 161301Z 15009KT 23/20 A2988 RMK A01 T02250199  RH  085%=      5-min Rain = 0
KCL2 161302Z 16009KT 23/20 A2988 RMK A01 T02260200  RH  085%=      5-min Rain = 0
KCL2 161303Z 16008KT 23/20 A2989 RMK A01 T02270201  RH  085%=      5-min Rain = 0
KCL2 161304Z 16009KT 23/20 A2989 RMK A01 T02290201  RH  084%=      5-min Rain = 0
KCL2 161305Z 15009KT 23/20 A2989 RMK A01 T02280201  RH  084%=      5-min Rain = 0
KCL2 161306Z 16008KT 23/20 A2989 RMK A01 T02290202  RH  085%=      5-min Rain = 0
KCL2 161307Z 17008KT 23/20 A2989 RMK A01 T02300202  RH  084%=      5-min Rain = 0
KCL2 161308Z 16008KT 23/20 A2989 RMK A01 T02300202  RH  084%=      5-min Rain = 0
KCL2 161309Z 17008KT 23/20 A2989 RMK A01 T02300202  RH  084%=      5-min Rain = 0
KCL2 161310Z 17009KT 23/20 A2989 RMK A01 T02310203  RH  084%=      5-min Rain = 0
KCL2 161311Z 17007KT 23/20 A2989 RMK A01 T02310202  RH  084%=      5-min Rain = 0
KCL2 161312Z 17008KT 23/20 A2989 RMK A01 T02310202  RH  084%=      5-min Rain = 0
KCL2 161313Z 17009KT 23/20 A2989 RMK A01 T02320203  RH  084%=      5-min Rain = 0
KCL2 161314Z 17009KT 23/20 A2989 RMK A01 T02320203  RH  084%=      5-min Rain = 0
KCL2 161315Z 17009KT 23/20 A2989 RMK A01 T02320203  RH  084%=      5-min Rain = 0
KCL2 161316Z 17008KT 23/20 A2989 RMK A01 T02320204  RH  084%=      5-min Rain = 0
KCL2 161317Z 17009KT 23/20 A2989 RMK A01 T02330204  RH  084%=      5-min Rain = 0
KCL2 161318Z 16008KT 23/20 A2989 RMK A01 T02330204  RH  084%=      5-min Rain = 0
KCL2 161319Z 16009KT 23/20 A2989 RMK A01 T02330204  RH  084%=      5-min Rain = 0
KCL2 161320Z 16010KT 23/20 A2989 RMK A01 T02340204  RH  083%=      5-min Rain = 0
KCL2 161321Z 16009KT 23/20 A2989 RMK A01 T02340204  RH  083%=      5-min Rain = 0
KCL2 161322Z 16008KT 23/20 A2989 RMK A01 T02340204  RH  083%=      5-min Rain = 0
KCL2 161323Z 16007KT 23/20 A2989 RMK A01 T02340204  RH  083%=      5-min Rain = 0
KCL2 161324Z 16011KT 24/20 A2989 RMK A01 T02350204  RH  083%=      5-min Rain = 0
KCL2 161325Z 16009KT 24/20 A2989 RMK A01 T02350204  RH  083%=      5-min Rain = 0
KCL2 161326Z 16010KT 24/21 A299 RMK A01 T02350205  RH  083%=      5-min Rain = 0
KCL2 161327Z 16009KT 24/20 A299 RMK A01 T02350204  RH  083%=      5-min Rain = 0
KCL2 161328Z 16010KT 24/21 A299 RMK A01 T02350205  RH  083%=      5-min Rain = 0
KCL2 161329Z 16010KT 24/21 A299 RMK A01 T02350205  RH  083%=      5-min Rain = 0
KCL2 161330Z 16010KT 24/21 A299 RMK A01 T02360206  RH  083%=      5-min Rain = 0
KCL2 161331Z 16009KT 24/21 A299 RMK A01 T02360206  RH  083%=      5-min Rain = 0
KCL2 161332Z 16010KT 24/21 A299 RMK A01 T02370207  RH  083%=      5-min Rain = 0
KCL2 161333Z 15009KT 24/21 A299 RMK A01 T02380207  RH  083%=      5-min Rain = 0
KCL2 161334Z 15007KT 24/21 A299 RMK A01 T02390207  RH  082%=      5-min Rain = 0
KCL2 161335Z 15009KT 24/21 A299 RMK A01 T02400208  RH  082%=      5-min Rain = 0
KCL2 161336Z 15009KT 24/21 A299 RMK A01 T02400209  RH  083%=      5-min Rain = 0
KCL2 161337Z 16009KT 24/21 A299 RMK A01 T02410209  RH  082%=      5-min Rain = 0
KCL2 161338Z 16009KT 24/21 A299 RMK A01 T02420210  RH  082%=      5-min Rain = 0
KCL2 161339Z 15008KT 24/21 A299 RMK A01 T02430211  RH  083%=      5-min Rain = 0
KCL2 161340Z 16011KT 24/21 A299 RMK A01 T02440211  RH  082%=      5-min Rain = 0
KCL2 161341Z 16012KT 24/21 A299 RMK A01 T02440211  RH  082%=      5-min Rain = 0
KCL2 161342Z 17010KT 24/21 A299 RMK A01 T02440211  RH  082%=      5-min Rain = 0
KCL2 161343Z 15009KT 24/21 A299 RMK A01 T02440212  RH  082%=      5-min Rain = 0
KCL2 161344Z 16011KT 25/21 A299 RMK A01 T02450212  RH  082%=      5-min Rain = 0
KCL2 161345Z 16012KT 25/21 A299 RMK A01 T02450212  RH  082%=      5-min Rain = 0
KCL2 161346Z 16010KT 25/21 A299 RMK A01 T02450212  RH  082%=      5-min Rain = 0
KCL2 161347Z 15009KT 25/21 A299 RMK A01 T02450213  RH  082%=      5-min Rain = 0
KCL2 161348Z 15010KT 25/21 A299 RMK A01 T02460212  RH  082%=      5-min Rain = 0
KCL2 161349Z 15012KT 25/21 A299 RMK A01 T02460212  RH  081%=      5-min Rain = 0
KCL2 161350Z 15012KT 25/21 A299 RMK A01 T02460212  RH  081%=      5-min Rain = 0
KCL2 161351Z 15011KT 25/21 A2991 RMK A01 T02450212  RH  082%=      5-min Rain = 0
KCL2 161352Z 16009KT 24/21 A299 RMK A01 T02440212  RH  082%=      5-min Rain = 0
KCL2 161353Z 16007KT 24/21 A2991 RMK A01 T02440213  RH  083%=      5-min Rain = 0
KCL2 161354Z 15008KT 25/21 A2991 RMK A01 T02450212  RH  082%=      5-min Rain = 0
KCL2 161355Z 15009KT 25/21 A2991 RMK A01 T02460213  RH  082%=      5-min Rain = 0
KCL2 161356Z 16009KT 25/21 A2991 RMK A01 T02470213  RH  081%=      5-min Rain = 0
KCL2 161357Z 15007G12KT 25/21 A2991 RMK A01 T02470213  RH  082%=      5-min Rain = 0
KCL2 161358Z 16010KT 25/21 A2991 RMK A01 T02470214  RH  082%=      5-min Rain = 0
KCL2 161359Z 16009KT 25/21 A2991 RMK A01 T02460214  RH  082%=      5-min Rain = 0
KCL2 161400Z 15011KT 25/21 A2991 RMK A01 T02460212  RH  082%=      5-min Rain = 0
KCL2 161401Z 16009KT 25/21 A2991 RMK A01 T02450212  RH  082%=      5-min Rain = 0
KCL2 161402Z 16009KT 25/21 A2991 RMK A01 T02450213  RH  082%=      5-min Rain = 0
KCL2 161403Z 16009KT 25/21 A2991 RMK A01 T02450213  RH  082%=      5-min Rain = 0
KCL2 161404Z 16008KT 24/21 A2991 RMK A01 T02440212  RH  082%=      5-min Rain = 0
KCL2 161405Z 16007KT 24/21 A2991 RMK A01 T02440213  RH  082%=      5-min Rain = 0
KCL2 161406Z 17008KT 25/21 A2991 RMK A01 T02450213  RH  082%=      5-min Rain = 0
KCL2 161407Z 16007KT 25/21 A2991 RMK A01 T02450213  RH  082%=      5-min Rain = 0
KCL2 161408Z 15008KT 25/21 A2991 RMK A01 T02460214  RH  082%=      5-min Rain = 0
KCL2 161409Z 16008KT 25/21 A2991 RMK A01 T02460213  RH  082%=      5-min Rain = 0
KCL2 161410Z 16007KT 25/21 A2991 RMK A01 T02460214  RH  082%=      5-min Rain = 0
KCL2 161411Z 15007KT 25/22 A2991 RMK A01 T02460215  RH  083%=      5-min Rain = 0
KCL2 161412Z 16007KT 25/21 A2991 RMK A01 T02460214  RH  082%=      5-min Rain = 0
KCL2 161413Z 16006KT 25/22 A2991 RMK A01 T02470215  RH  082%=      5-min Rain = 0
KCL2 161414Z 16006KT 25/22 A2991 RMK A01 T02470215  RH  082%=      5-min Rain = 0
KCL2 161415Z 16005KT 25/22 A2992 RMK A01 T02470215  RH  082%=      5-min Rain = 0
KCL2 161416Z 16005KT 25/22 A2992 RMK A01 T02480216  RH  082%=      5-min Rain = 0
KCL2 161417Z 16005KT 25/22 A2992 RMK A01 T02490216  RH  082%=      5-min Rain = 0
KCL2 161418Z 16005KT 25/22 A2992 RMK A01 T02500216  RH  082%=      5-min Rain = 0
KCL2 161419Z 16006KT 25/22 A2992 RMK A01 T02500217  RH  082%=      5-min Rain = 0
KCL2 161420Z 15008KT 25/22 A2992 RMK A01 T02500216  RH  081%=      5-min Rain = 0
KCL2 161421Z 16007KT 25/22 A2992 RMK A01 T02500215  RH  081%=      5-min Rain = 0
KCL2 161422Z 16007KT 25/22 A2991 RMK A01 T02490215  RH  081%=      5-min Rain = 0
KCL2 161423Z 15009KT 25/21 A2992 RMK A01 T02490214  RH  081%=      5-min Rain = 0
KCL2 161424Z 15008KT 25/22 A2991 RMK A01 T02500215  RH  081%=      5-min Rain = 0
KCL2 161425Z 15008KT 25/22 A2991 RMK A01 T02500216  RH  081%=      5-min Rain = 0
KCL2 161426Z 15010KT 25/22 A2991 RMK A01 T02490215  RH  081%=      5-min Rain = 0
KCL2 161427Z 16009KT 25/21 A2991 RMK A01 T02500214  RH  081%=      5-min Rain = 0
KCL2 161428Z 16008KT 25/22 A2991 RMK A01 T02510216  RH  081%=      5-min Rain = 0
KCL2 161429Z 15008KT 25/22 A2991 RMK A01 T02510216  RH  081%=      5-min Rain = 0
KCL2 161430Z 15007KT 25/22 A2991 RMK A01 T02520215  RH  080%=      5-min Rain = 0
KCL2 161431Z 16008G13KT 25/22 A2991 RMK A01 T02520216  RH  080%=      5-min Rain = 0
KCL2 161432Z 15010KT 25/21 A2991 RMK A01 T02520213  RH  079%=      5-min Rain = 0
KCL2 161433Z 16009KT 25/21 A2991 RMK A01 T02510213  RH  079%=      5-min Rain = 0
KCL2 161434Z 16008KT 25/21 A2991 RMK A01 T02500213  RH  080%=      5-min Rain = 0
KCL2 161435Z 15010KT 25/21 A2991 RMK A01 T02510214  RH  080%=      5-min Rain = 0
KCL2 161436Z 15009KT 25/22 A2991 RMK A01 T02530215  RH  079%=      5-min Rain = 0
KCL2 161437Z 15007KT 26/22 A2991 RMK A01 T02550215  RH  079%=      5-min Rain = 0
KCL2 161438Z 16010KT 26/22 A2991 RMK A01 T02570216  RH  078%=      5-min Rain = 0
KCL2 161439Z 16009KT 26/22 A2991 RMK A01 T02580215  RH  077%=      5-min Rain = 0
KCL2 161440Z 16009KT 26/21 A2991 RMK A01 T02580214  RH  077%=      5-min Rain = 0
KCL2 161441Z 16007KT 26/22 A2991 RMK A01 T02590215  RH  077%=      5-min Rain = 0
KCL2 161442Z 15006KT 26/22 A2991 RMK A01 T02600217  RH  077%=      5-min Rain = 0
KCL2 161443Z 15007KT 26/22 A2991 RMK A01 T02620218  RH  077%=      5-min Rain = 0
KCL2 161444Z 15009KT 26/22 A2991 RMK A01 T02630216  RH  075%=      5-min Rain = 0
KCL2 161445Z 16009KT 26/22 A2991 RMK A01 T02630215  RH  075%=      5-min Rain = 0
KCL2 161446Z 15008KT 26/22 A2991 RMK A01 T02630216  RH  075%=      5-min Rain = 0
KCL2 161447Z 15008KT 26/22 A2991 RMK A01 T02640217  RH  075%=      5-min Rain = 0
KCL2 161448Z 16011KT 27/22 A2991 RMK A01 T02650216  RH  075%=      5-min Rain = 0
KCL2 161449Z 16010KT 27/21 A2991 RMK A01 T02650214  RH  074%=      5-min Rain = 0
KCL2 161450Z 14008KT 26/22 A2991 RMK A01 T02630215  RH  075%=      5-min Rain = 0
KCL2 161451Z 16008KT 26/22 A2991 RMK A01 T02640217  RH  075%=      5-min Rain = 0
KCL2 161452Z 16009KT 27/22 A2991 RMK A01 T02660216  RH  074%=      5-min Rain = 0
KCL2 161453Z 16010KT 27/22 A2991 RMK A01 T02670217  RH  074%=      5-min Rain = 0
KCL2 161454Z 16009KT 27/22 A2991 RMK A01 T02680215  RH  073%=      5-min Rain = 0
KCL2 161455Z 16010KT 27/22 A2991 RMK A01 T02680215  RH  072%=      5-min Rain = 0
KCL2 161456Z 17010KT 27/22 A2991 RMK A01 T02680216  RH  073%=      5-min Rain = 0
KCL2 161457Z 16009KT 27/22 A2991 RMK A01 T02680215  RH  073%=      5-min Rain = 0
KCL2 161458Z 16011KT 27/22 A2991 RMK A01 T02680215  RH  073%=      5-min Rain = 0
KCL2 161459Z 16010KT 27/21 A2991 RMK A01 T02690213  RH  072%=      5-min Rain = 0
KCL2 161500Z 17009KT 27/22 A2991 RMK A01 T02680215  RH  073%=      5-min Rain = 0
KCL2 161501Z 16008KT 27/22 A2991 RMK A01 T02680215  RH  073%=      5-min Rain = 0
KCL2 161502Z 15007KT 27/22 A2991 RMK A01 T02690216  RH  073%=      5-min Rain = 0
KCL2 161503Z 15008KT 27/22 A2991 RMK A01 T02700217  RH  073%=      5-min Rain = 0
KCL2 161504Z 13010KT 27/22 A2991 RMK A01 T02710219  RH  073%=      5-min Rain = 0
KCL2 161505Z 13009KT 27/22 A2991 RMK A01 T02720217  RH  072%=      5-min Rain = 0
KCL2 161506Z 15008KT 27/22 A2991 RMK A01 T02720217  RH  072%=      5-min Rain = 0
KCL2 161507Z 16008KT 27/22 A2991 RMK A01 T02720217  RH  072%=      5-min Rain = 0
KCL2 161508Z 17011KT 27/22 A2991 RMK A01 T02710215  RH  071%=      5-min Rain = 0
KCL2 161509Z 17013KT 27/21 A2991 RMK A01 T02720211  RH  069%=      5-min Rain = 0
KCL2 161510Z 17011KT 27/21 A2991 RMK A01 T02720212  RH  070%=      5-min Rain = 0
KCL2 161511Z 17011KT 27/21 A2991 RMK A01 T02720211  RH  069%=      5-min Rain = 0
KCL2 161512Z 18010KT 27/21 A2991 RMK A01 T02720212  RH  070%=      5-min Rain = 0
KCL2 161513Z 17010KT 27/21 A2991 RMK A01 T02710213  RH  071%=      5-min Rain = 0
KCL2 161514Z 16009KT 27/22 A2991 RMK A01 T02710215  RH  071%=      5-min Rain = 0
KCL2 161515Z 15010KT 27/22 A2991 RMK A01 T02720216  RH  071%=      5-min Rain = 0
KCL2 161516Z 15011KT 27/22 A2991 RMK A01 T02720215  RH  071%=      5-min Rain = 0
KCL2 161517Z 17011KT 27/22 A2991 RMK A01 T02720217  RH  072%=      5-min Rain = 0
KCL2 161518Z 17008KT 27/22 A2991 RMK A01 T02720217  RH  072%=      5-min Rain = 0
KCL2 161519Z 16008KT 27/22 A2991 RMK A01 T02740220  RH  073%=      5-min Rain = 0
KCL2 161520Z 17011KT 28/22 A2991 RMK A01 T02750217  RH  071%=      5-min Rain = 0
KCL2 161521Z 16012KT 27/22 A2991 RMK A01 T02740217  RH  071%=      5-min Rain = 0
KCL2 161522Z 17011KT 27/22 A2991 RMK A01 T02730218  RH  072%=      5-min Rain = 0
KCL2 161523Z 16010KT 27/22 A2991 RMK A01 T02730218  RH  072%=      5-min Rain = 0
KCL2 161524Z 16009KT 27/22 A2991 RMK A01 T02710218  RH  073%=      5-min Rain = 0
KCL2 161525Z 16010KT 27/22 A2991 RMK A01 T02710218  RH  073%=      5-min Rain = 0
KCL2 161526Z 16011KT 27/22 A2991 RMK A01 T02700216  RH  073%=      5-min Rain = 0
KCL2 161527Z 19012KT 27/22 A2991 RMK A01 T02700215  RH  072%=      5-min Rain = 0
KCL2 161528Z 19011KT 27/21 A2991 RMK A01 T02710214  RH  071%=      5-min Rain = 0
KCL2 161529Z 18009KT 27/22 A2991 RMK A01 T02730216  RH  071%=      5-min Rain = 0
KCL2 161530Z 19012KT 28/22 A2991 RMK A01 T02750217  RH  071%=      5-min Rain = 0
KCL2 161531Z 18011KT 28/22 A2991 RMK A01 T02760217  RH  070%=      5-min Rain = 0
KCL2 161532Z 18011KT 28/22 A2991 RMK A01 T02770215  RH  069%=      5-min Rain = 0
KCL2 161533Z 18010KT 28/22 A2991 RMK A01 T02750216  RH  070%=      5-min Rain = 0
KCL2 161534Z 17011KT 28/22 A2991 RMK A01 T02750215  RH  070%=      5-min Rain = 0
KCL2 161535Z 16010KT 28/22 A2991 RMK A01 T02750216  RH  070%=      5-min Rain = 0
KCL2 161536Z 18009KT 28/22 A2991 RMK A01 T02760219  RH  071%=      5-min Rain = 0
KCL2 161537Z 18008KT 28/22 A2991 RMK A01 T02800222  RH  070%=      5-min Rain = 0
KCL2 161538Z 17011KT 28/22 A2991 RMK A01 T02820220  RH  069%=      5-min Rain = 0
KCL2 161539Z 18012KT 28/22 A2991 RMK A01 T02820219  RH  069%=      5-min Rain = 0
KCL2 161540Z 18009KT 28/22 A2991 RMK A01 T02800218  RH  069%=      5-min Rain = 0
KCL2 161541Z 18008KT 28/22 A2991 RMK A01 T02780219  RH  070%=      5-min Rain = 0
KCL2 161542Z 16009KT 28/22 A2991 RMK A01 T02790218  RH  069%=      5-min Rain = 0
KCL2 161543Z 15010KT 28/22 A2991 RMK A01 T02790218  RH  069%=      5-min Rain = 0
KCL2 161544Z 16009KT 28/22 A2991 RMK A01 T02790219  RH  070%=      5-min Rain = 0
KCL2 161545Z 17011KT 28/22 A2991 RMK A01 T02810220  RH  070%=      5-min Rain = 0
KCL2 161546Z 19010KT 28/22 A2991 RMK A01 T02800216  RH  068%=      5-min Rain = 0
KCL2 161547Z 17013KT 28/22 A2991 RMK A01 T02790219  RH  070%=      5-min Rain = 0
KCL2 161548Z 18012KT 28/22 A2991 RMK A01 T02790216  RH  068%=      5-min Rain = 0
KCL2 161549Z 18012KT 28/22 A2991 RMK A01 T02780217  RH  069%=      5-min Rain = 0
KCL2 161550Z 19009KT 28/22 A2991 RMK A01 T02770217  RH  070%=      5-min Rain = 0
KCL2 161551Z 19007KT 28/22 A2991 RMK A01 T02770219  RH  071%=      5-min Rain = 0
KCL2 161552Z 17008G13KT 28/22 A2991 RMK A01 T02790221  RH  071%=      5-min Rain = 0
KCL2 161553Z 17012KT 28/22 A2991 RMK A01 T02800218  RH  069%=      5-min Rain = 0
KCL2 161554Z 16014KT 28/22 A2991 RMK A01 T02800216  RH  068%=      5-min Rain = 0
KCL2 161555Z 15011KT 28/22 A2991 RMK A01 T02780215  RH  069%=      5-min Rain = 0
KCL2 161556Z 18011KT 28/22 A2991 RMK A01 T02770217  RH  070%=      5-min Rain = 0
KCL2 161557Z 17011KT 28/22 A2991 RMK A01 T02780217  RH  069%=      5-min Rain = 0
KCL2 161558Z 19010KT 28/22 A2991 RMK A01 T02770219  RH  070%=      5-min Rain = 0
KCL2 161559Z 18012KT 28/22 A2991 RMK A01 T02770218  RH  070%=      5-min Rain = 0
KCL2 161600Z 18012KT 28/22 A2991 RMK A01 T02770217  RH  070%=      5-min Rain = 0
KCL2 161601Z 18012KT 28/22 A2991 RMK A01 T02780217  RH  069%=      5-min Rain = 0
KCL2 161602Z 18012KT 28/22 A2991 RMK A01 T02790215  RH  068%=      5-min Rain = 0
KCL2 161603Z 17012KT 28/21 A2991 RMK A01 T02790214  RH  068%=      5-min Rain = 0
KCL2 161604Z 17011KT 28/22 A2991 RMK A01 T02780215  RH  068%=      5-min Rain = 0
KCL2 161605Z 18015KT 28/22 A2991 RMK A01 T02780215  RH  069%=      5-min Rain = 0
KCL2 161606Z 18011KT 28/22 A2991 RMK A01 T02770216  RH  069%=      5-min Rain = 0
KCL2 161607Z 19010KT 28/22 A2991 RMK A01 T02780217  RH  070%=      5-min Rain = 0
KCL2 161608Z 18008KT 28/22 A2991 RMK A01 T02780217  RH  069%=      5-min Rain = 0
KCL2 161609Z 18012KT 28/22 A2991 RMK A01 T02780218  RH  070%=      5-min Rain = 0
KCL2 161610Z 17011KT 28/22 A2991 RMK A01 T02770216  RH  069%=      5-min Rain = 0
KCL2 161611Z 17008KT 28/22 A2991 RMK A01 T02750217  RH  070%=      5-min Rain = 0
KCL2 161612Z 16011KT 28/22 A2991 RMK A01 T02760218  RH  070%=      5-min Rain = 0
KCL2 161613Z 17010KT 28/22 A2991 RMK A01 T02800219  RH  070%=      5-min Rain = 0
KCL2 161614Z 17010KT 28/22 A2991 RMK A01 T02820220  RH  069%=      5-min Rain = 0
KCL2 161615Z 18008G13KT 28/22 A2991 RMK A01 T02830220  RH  069%=      5-min Rain = 0
KCL2 161616Z 19011KT 28/22 A2991 RMK A01 T02830217  RH  068%=      5-min Rain = 0
KCL2 161617Z 19012KT 28/22 A2991 RMK A01 T02820218  RH  068%=      5-min Rain = 0
KCL2 161618Z 19010KT 28/22 A299 RMK A01 T02820220  RH  069%=      5-min Rain = 0
KCL2 161619Z 19013KT 28/22 A299 RMK A01 T02830221  RH  069%=      5-min Rain = 0
KCL2 161620Z 19011KT 28/22 A2991 RMK A01 T02840219  RH  068%=      5-min Rain = 0
KCL2 161621Z 18010KT 28/22 A2991 RMK A01 T02830216  RH  067%=      5-min Rain = 0
KCL2 161622Z 18010KT 28/22 A299 RMK A01 T02830216  RH  067%=      5-min Rain = 0
KCL2 161623Z 17009KT 28/22 A299 RMK A01 T02830215  RH  067%=      5-min Rain = 0
KCL2 161624Z 17011KT 28/22 A299 RMK A01 T02830218  RH  068%=      5-min Rain = 0
KCL2 161625Z 16011KT 29/22 A299 RMK A01 T02850217  RH  067%=      5-min Rain = 0
KCL2 161626Z 17010KT 29/22 A299 RMK A01 T02850219  RH  067%=      5-min Rain = 0
KCL2 161627Z 17011KT 29/22 A299 RMK A01 T02870219  RH  067%=      5-min Rain = 0
KCL2 161628Z 18009KT 29/22 A299 RMK A01 T02870217  RH  066%=      5-min Rain = 0
KCL2 161629Z 18013KT 29/22 A299 RMK A01 T02860219  RH  067%=      5-min Rain = 0
KCL2 161630Z 18011KT 28/22 A299 RMK A01 T02830218  RH  068%=      5-min Rain = 0
KCL2 161631Z 18009KT 28/22 A299 RMK A01 T02820219  RH  068%=      5-min Rain = 0
KCL2 161632Z 18011KT 28/22 A299 RMK A01 T02840220  RH  068%=      5-min Rain = 0
KCL2 161633Z 18013KT 29/22 A299 RMK A01 T02860217  RH  066%=      5-min Rain = 0
KCL2 161634Z 19012KT 29/22 A299 RMK A01 T02860219  RH  067%=      5-min Rain = 0
KCL2 161635Z 18011KT 29/22 A299 RMK A01 T02870220  RH  067%=      5-min Rain = 0
KCL2 161636Z 16011KT 29/22 A299 RMK A01 T02870219  RH  066%=      5-min Rain = 0
KCL2 161637Z 17011KT 29/22 A299 RMK A01 T02880220  RH  067%=      5-min Rain = 0
KCL2 161638Z 18009KT 29/22 A299 RMK A01 T02870218  RH  066%=      5-min Rain = 0
KCL2 161639Z 17010KT 29/22 A299 RMK A01 T02850219  RH  068%=      5-min Rain = 0
KCL2 161640Z 17011KT 29/22 A299 RMK A01 T02850220  RH  068%=      5-min Rain = 0
KCL2 161641Z 18009KT 29/22 A299 RMK A01 T02880222  RH  067%=      5-min Rain = 0
KCL2 161642Z 17009KT 29/22 A299 RMK A01 T02900222  RH  067%=      5-min Rain = 0
KCL2 161643Z 16011G17KT 29/22 A299 RMK A01 T02900222  RH  067%=      5-min Rain = 0
KCL2 161644Z 16014KT 29/22 A299 RMK A01 T02900220  RH  066%=      5-min Rain = 0
KCL2 161645Z 16013KT 29/22 A299 RMK A01 T02870219  RH  067%=      5-min Rain = 0
KCL2 161646Z 18010KT 29/22 A299 RMK A01 T02860220  RH  068%=      5-min Rain = 0
KCL2 161647Z 19010KT 29/22 A299 RMK A01 T02860221  RH  068%=      5-min Rain = 0
KCL2 161648Z 18007KT 29/22 A2991 RMK A01 T02860222  RH  068%=      5-min Rain = 0
KCL2 161649Z 18007KT 29/22 A299 RMK A01 T02870224  RH  069%=      5-min Rain = 0
KCL2 161650Z 18009G14KT 29/23 A2991 RMK A01 T02900226  RH  068%=      5-min Rain = 0
KCL2 161651Z 18010KT 29/22 A2991 RMK A01 T02920221  RH  065%=      5-min Rain = 0
KCL2 161652Z 18012KT 29/22 A2991 RMK A01 T02900223  RH  067%=      5-min Rain = 0
KCL2 161653Z 17010KT 29/22 A2991 RMK A01 T02890220  RH  066%=      5-min Rain = 0
KCL2 161654Z 16008KT 29/22 A2991 RMK A01 T02870220  RH  067%=      5-min Rain = 0
KCL2 161655Z 16010KT 29/22 A2991 RMK A01 T02860220  RH  067%=      5-min Rain = 0
KCL2 161656Z 15010KT 29/22 A2991 RMK A01 T02860221  RH  068%=      5-min Rain = 0
KCL2 161657Z 15011KT 29/22 A2991 RMK A01 T02850220  RH  068%=      5-min Rain = 0
KCL2 161658Z 15011KT 29/22 A2991 RMK A01 T02850218  RH  067%=      5-min Rain = 0
KCL2 161659Z 15010KT 29/22 A2991 RMK A01 T02860221  RH  068%=      5-min Rain = 0
KCL2 161700Z 16010KT 29/22 A2991 RMK A01 T02890223  RH  068%=      5-min Rain = 0
KCL2 161701Z 15010KT 29/22 A2991 RMK A01 T02880220  RH  067%=      5-min Rain = 0
KCL2 161702Z 16010KT 29/22 A2991 RMK A01 T02860222  RH  068%=      5-min Rain = 0
KCL2 161703Z 17009KT 29/22 A2991 RMK A01 T02860223  RH  069%=      5-min Rain = 0
KCL2 161704Z 16009KT 29/22 A2991 RMK A01 T02870223  RH  069%=      5-min Rain = 0
KCL2 161705Z 17010KT 29/22 A2991 RMK A01 T02880220  RH  067%=      5-min Rain = 0
KCL2 161706Z 19009KT 29/22 A2991 RMK A01 T02880220  RH  067%=      5-min Rain = 0
KCL2 161707Z 19006KT 29/22 A2991 RMK A01 T02890219  RH  066%=      5-min Rain = 0
KCL2 161708Z 19011G16KT 29/22 A2991 RMK A01 T02910218  RH  065%=      5-min Rain = 0
KCL2 161709Z 19012KT 29/22 A2991 RMK A01 T02910218  RH  065%=      5-min Rain = 0
KCL2 161710Z 19009KT 29/22 A2991 RMK A01 T02910217  RH  064%=      5-min Rain = 0
KCL2 161711Z 17012KT 29/22 A2991 RMK A01 T02910222  RH  067%=      5-min Rain = 0
KCL2 161712Z 16011KT 29/22 A2991 RMK A01 T02920223  RH  066%=      5-min Rain = 0
KCL2 161713Z 15013KT 29/22 A2991 RMK A01 T02930219  RH  065%=      5-min Rain = 0
KCL2 161714Z 14013KT 29/22 A2991 RMK A01 T02900220  RH  066%=      5-min Rain = 0
KCL2 161715Z 17010KT 29/22 A2991 RMK A01 T02890222  RH  067%=      5-min Rain = 0
KCL2 161716Z 18012KT 29/22 A2991 RMK A01 T02910222  RH  066%=      5-min Rain = 0
KCL2 161717Z 19012KT 29/22 A2991 RMK A01 T02910218  RH  065%=      5-min Rain = 0
KCL2 161718Z 18007KT 29/22 A2991 RMK A01 T02900216  RH  064%=      5-min Rain = 0
KCL2 161719Z 17007KT 29/22 A2991 RMK A01 T02900222  RH  067%=      5-min Rain = 0
KCL2 161720Z 19009KT 29/22 A2991 RMK A01 T02930223  RH  066%=      5-min Rain = 0
KCL2 161721Z 18011KT 29/22 A2991 RMK A01 T02930222  RH  066%=      5-min Rain = 0
KCL2 161722Z 17012KT 29/22 A2991 RMK A01 T02890219  RH  066%=      5-min Rain = 0
KCL2 161723Z 17010KT 29/22 A299 RMK A01 T02860220  RH  067%=      5-min Rain = 0
KCL2 161724Z 16011KT 29/22 A299 RMK A01 T02850219  RH  067%=      5-min Rain = 0
KCL2 161725Z 17010KT 28/22 A299 RMK A01 T02840220  RH  068%=      5-min Rain = 0
KCL2 161726Z 17008KT 28/22 A299 RMK A01 T02830220  RH  069%=      5-min Rain = 0
KCL2 161727Z 17009KT 29/22 A299 RMK A01 T02860221  RH  068%=      5-min Rain = 0
KCL2 161728Z 17007KT 29/22 A299 RMK A01 T02910223  RH  067%=      5-min Rain = 0
KCL2 161729Z 17009G14KT 30/22 A299 RMK A01 T02950223  RH  066%=      5-min Rain = 0
KCL2 161730Z 16011KT 30/22 A299 RMK A01 T02950218  RH  063%=      5-min Rain = 0
KCL2 161731Z 17010KT 29/22 A299 RMK A01 T02910216  RH  064%=      5-min Rain = 0
KCL2 161732Z 20008KT 29/22 A299 RMK A01 T02870217  RH  066%=      5-min Rain = 0
KCL2 161733Z 17010KT 29/22 A299 RMK A01 T02850219  RH  067%=      5-min Rain = 0
KCL2 161734Z 18008KT 28/22 A299 RMK A01 T02840218  RH  068%=      5-min Rain = 0
KCL2 161735Z 18011KT 28/22 A299 RMK A01 T02830219  RH  068%=      5-min Rain = 0
KCL2 161736Z 17009KT 28/22 A299 RMK A01 T02820219  RH  069%=      5-min Rain = 0
KCL2 161737Z 18007KT 28/22 A299 RMK A01 T02810218  RH  068%=      5-min Rain = 0
KCL2 161738Z 17006KT 28/22 A299 RMK A01 T02810218  RH  069%=      5-min Rain = 0
KCL2 161739Z 17006KT 28/22 A299 RMK A01 T02800220  RH  070%=      5-min Rain = 0
KCL2 161740Z 17011KT 28/22 A299 RMK A01 T02810220  RH  070%=      5-min Rain = 0
KCL2 161741Z 18012KT 28/22 A2989 RMK A01 T02810215  RH  067%=      5-min Rain = 0
KCL2 161742Z 18011KT 28/22 A2989 RMK A01 T02790215  RH  068%=      5-min Rain = 0
KCL2 161743Z 18010KT 28/22 A2989 RMK A01 T02780216  RH  069%=      5-min Rain = 0
KCL2 161744Z 18011KT 28/21 A2989 RMK A01 T02790214  RH  068%=      5-min Rain = 0
KCL2 161745Z 19010KT 28/21 A2989 RMK A01 T02790212  RH  067%=      5-min Rain = 0
KCL2 161746Z 20009KT 28/22 A2989 RMK A01 T02800215  RH  068%=      5-min Rain = 0
KCL2 161747Z 18010KT 28/21 A2989 RMK A01 T02800213  RH  067%=      5-min Rain = 0
KCL2 161748Z 20011KT 28/21 A2989 RMK A01 T02810214  RH  067%=      5-min Rain = 0
KCL2 161749Z 19010KT 28/22 A2989 RMK A01 T02810215  RH  067%=      5-min Rain = 0
KCL2 161750Z 18009KT 28/22 A2989 RMK A01 T02830218  RH  068%=      5-min Rain = 0
KCL2 161751Z 16013KT 28/22 A2988 RMK A01 T02840215  RH  066%=      5-min Rain = 0
KCL2 161752Z 20009G14KT 29/22 A2989 RMK A01 T02850219  RH  067%=      5-min Rain = 0
KCL2 161753Z 18010KT 29/22 A2989 RMK A01 T02870218  RH  066%=      5-min Rain = 0
KCL2 161754Z 19010G15KT 29/22 A2988 RMK A01 T02880216  RH  065%=      5-min Rain = 0
KCL2 161755Z 19015KT 29/22 A2988 RMK A01 T02880215  RH  064%=      5-min Rain = 0
KCL2 161756Z 18012KT 29/22 A2988 RMK A01 T02860218  RH  067%=      5-min Rain = 0
KCL2 161757Z 18013KT 29/22 A2988 RMK A01 T02850219  RH  067%=      5-min Rain = 0
KCL2 161758Z 18014KT 28/22 A2988 RMK A01 T02830218  RH  068%=      5-min Rain = 0
KCL2 161759Z 18013KT 28/22 A2988 RMK A01 T02810216  RH  068%=      5-min Rain = 0
KCL2 161800Z 18010KT 28/22 A2988 RMK A01 T02790218  RH  069%=      5-min Rain = 0
KCL2 161801Z 17011KT 28/22 A2988 RMK A01 T02790217  RH  069%=      5-min Rain = 0
KCL2 161802Z 16011KT 28/22 A2988 RMK A01 T02790216  RH  069%=      5-min Rain = 0
KCL2 161803Z 18012KT 28/22 A2988 RMK A01 T02780216  RH  069%=      5-min Rain = 0
KCL2 161804Z 19012KT 28/22 A2988 RMK A01 T02790217  RH  069%=      5-min Rain = 0
KCL2 161805Z 18011KT 28/22 A2988 RMK A01 T02810216  RH  068%=      5-min Rain = 0
KCL2 161806Z 17011KT 28/22 A2988 RMK A01 T02830218  RH  068%=      5-min Rain = 0
KCL2 161807Z 17011KT 29/22 A2988 RMK A01 T02880221  RH  067%=      5-min Rain = 0
KCL2 161808Z 18011KT 29/22 A2987 RMK A01 T02920224  RH  067%=      5-min Rain = 0
KCL2 161809Z 19013KT 29/22 A2987 RMK A01 T02940221  RH  065%=      5-min Rain = 0
KCL2 161810Z 19011KT 29/22 A2987 RMK A01 T02920216  RH  063%=      5-min Rain = 0
KCL2 161811Z 19012G17KT 29/22 A2987 RMK A01 T02890218  RH  065%=      5-min Rain = 0
KCL2 161812Z 18012KT 29/22 A2987 RMK A01 T02900219  RH  066%=      5-min Rain = 0
KCL2 161813Z 19014KT 29/22 A2987 RMK A01 T02900219  RH  065%=      5-min Rain = 0
KCL2 161814Z 20013KT 29/22 A2987 RMK A01 T02900218  RH  065%=      5-min Rain = 0
KCL2 161815Z 20011KT 29/22 A2987 RMK A01 T02910219  RH  065%=      5-min Rain = 0
KCL2 161816Z 19012KT 29/22 A2987 RMK A01 T02920219  RH  065%=      5-min Rain = 0
KCL2 161817Z 18012KT 29/22 A2987 RMK A01 T02920219  RH  064%=      5-min Rain = 0
KCL2 161818Z 20012KT 29/22 A2987 RMK A01 T02920221  RH  066%=      5-min Rain = 0
KCL2 161819Z 19011KT 29/22 A2987 RMK A01 T02930221  RH  065%=      5-min Rain = 0
KCL2 161820Z 18009KT 30/22 A2987 RMK A01 T02970223  RH  065%=      5-min Rain = 0
KCL2 161821Z 20014KT 30/23 A2987 RMK A01 T03000225  RH  064%=      5-min Rain = 0
KCL2 161822Z 18009KT 30/22 A2987 RMK A01 T02980222  RH  064%=      5-min Rain = 0
KCL2 161823Z 17013KT 30/22 A2987 RMK A01 T02950221  RH  064%=      5-min Rain = 0
KCL2 161824Z 18012KT 29/22 A2987 RMK A01 T02930220  RH  065%=      5-min Rain = 0
KCL2 161825Z 18010KT 29/22 A2987 RMK A01 T02910220  RH  066%=      5-min Rain = 0
KCL2 161826Z 19013KT 29/22 A2987 RMK A01 T02900221  RH  066%=      5-min Rain = 0
KCL2 161827Z 20012KT 29/22 A2987 RMK A01 T02890219  RH  066%=      5-min Rain = 0
KCL2 161828Z 20011KT 29/22 A2987 RMK A01 T02880219  RH  066%=      5-min Rain = 0
KCL2 161829Z 18013G19KT 29/22 A2987 RMK A01 T02880220  RH  067%=      5-min Rain = 0
KCL2 161830Z 18015KT 29/22 A2987 RMK A01 T02900217  RH  065%=      5-min Rain = 0
KCL2 161831Z 19013KT 29/22 A2987 RMK A01 T02900219  RH  066%=      5-min Rain = 0
KCL2 161832Z 19015KT 29/22 A2986 RMK A01 T02930219  RH  064%=      5-min Rain = 0
KCL2 161833Z 19015KT 29/22 A2986 RMK A01 T02930217  RH  063%=      5-min Rain = 0
KCL2 161834Z 19015KT 29/22 A2986 RMK A01 T02930216  RH  063%=      5-min Rain = 0
KCL2 161835Z 19014KT 29/21 A2986 RMK A01 T02930214  RH  063%=      5-min Rain = 0
KCL2 161836Z 19013G19KT 29/22 A2986 RMK A01 T02910216  RH  064%=      5-min Rain = 0
KCL2 161837Z 19016KT 29/22 A2986 RMK A01 T02910216  RH  064%=      5-min Rain = 0
KCL2 161838Z 19014KT 29/22 A2986 RMK A01 T02900215  RH  064%=      5-min Rain = 0
KCL2 161839Z 17014G19KT 29/22 A2986 RMK A01 T02890218  RH  066%=      5-min Rain = 0
KCL2 161840Z 18012KT 29/22 A2986 RMK A01 T02900218  RH  065%=      5-min Rain = 0
KCL2 161841Z 19014KT 29/22 A2986 RMK A01 T02910219  RH  065%=      5-min Rain = 0
KCL2 161842Z 20012KT 29/22 A2986 RMK A01 T02900216  RH  064%=      5-min Rain = 0
KCL2 161843Z 18012KT 29/22 A2986 RMK A01 T02880217  RH  065%=      5-min Rain = 0
KCL2 161844Z 19014KT 29/22 A2986 RMK A01 T02870216  RH  066%=      5-min Rain = 0
KCL2 161845Z 19013KT 29/22 A2986 RMK A01 T02860215  RH  066%=      5-min Rain = 0
KCL2 161846Z 19013KT 29/22 A2986 RMK A01 T02860216  RH  066%=      5-min Rain = 0
KCL2 161847Z 19012KT 29/22 A2986 RMK A01 T02870216  RH  066%=      5-min Rain = 0
KCL2 161848Z 19012KT 29/22 A2986 RMK A01 T02870215  RH  065%=      5-min Rain = 0
KCL2 161849Z 19010KT 29/22 A2986 RMK A01 T02870215  RH  065%=      5-min Rain = 0
KCL2 161850Z 20010KT 29/22 A2986 RMK A01 T02860217  RH  066%=      5-min Rain = 0
KCL2 161851Z 19011KT 29/22 A2986 RMK A01 T02870217  RH  066%=      5-min Rain = 0
KCL2 161852Z 18015KT 29/21 A2986 RMK A01 T02860214  RH  065%=      5-min Rain = 0
KCL2 161853Z 19013KT 29/21 A2987 RMK A01 T02850213  RH  065%=      5-min Rain = 0
KCL2 161854Z 19012KT 28/21 A2987 RMK A01 T02830213  RH  066%=      5-min Rain = 0
KCL2 161855Z 18012KT 28/21 A2987 RMK A01 T02820213  RH  066%=      5-min Rain = 0
KCL2 161856Z 19011KT 28/21 A2987 RMK A01 T02820214  RH  067%=      5-min Rain = 0
KCL2 161857Z 19009KT 28/22 A2987 RMK A01 T02820215  RH  067%=      5-min Rain = 0
KCL2 161858Z 19011KT 28/22 A2987 RMK A01 T02820215  RH  067%=      5-min Rain = 0
KCL2 161859Z 19009KT 28/21 A2987 RMK A01 T02810214  RH  067%=      5-min Rain = 0
KCL2 161900Z 18009G14KT 28/22 A2987 RMK A01 T02800216  RH  068%=      5-min Rain = 0
KCL2 161901Z 20011KT 28/21 A2987 RMK A01 T02800214  RH  067%=      5-min Rain = 0
KCL2 161902Z 20011KT 28/22 A2986 RMK A01 T02800215  RH  068%=      5-min Rain = 0
KCL2 161903Z 20012KT 28/22 A2986 RMK A01 T02800215  RH  068%=      5-min Rain = 0
KCL2 161904Z 20010KT 28/22 A2986 RMK A01 T02800215  RH  068%=      5-min Rain = 0
KCL2 161905Z 19009KT 28/22 A2986 RMK A01 T02810217  RH  068%=      5-min Rain = 0
KCL2 161906Z 20011KT 28/21 A2985 RMK A01 T02820214  RH  067%=      5-min Rain = 0
KCL2 161907Z 20012KT 28/21 A2986 RMK A01 T02820213  RH  066%=      5-min Rain = 0
KCL2 161908Z 19009KT 28/22 A2986 RMK A01 T02820215  RH  067%=      5-min Rain = 0
KCL2 161909Z 19012KT 28/22 A2985 RMK A01 T02820215  RH  067%=      5-min Rain = 0
KCL2 161910Z 20011KT 28/22 A2986 RMK A01 T02820216  RH  067%=      5-min Rain = 0
KCL2 161911Z 20012KT 28/21 A2986 RMK A01 T02820213  RH  066%=      5-min Rain = 0
KCL2 161912Z 21009KT 28/21 A2986 RMK A01 T02820214  RH  067%=      5-min Rain = 0
KCL2 161913Z 21011KT 28/21 A2986 RMK A01 T02820214  RH  067%=      5-min Rain = 0
KCL2 161914Z 20011KT 28/21 A2986 RMK A01 T02820211  RH  065%=      5-min Rain = 0
KCL2 161915Z 22011KT 28/21 A2986 RMK A01 T02820212  RH  066%=      5-min Rain = 0
KCL2 161916Z 20010KT 28/21 A2987 RMK A01 T02810213  RH  066%=      5-min Rain = 0
KCL2 161917Z 20009KT 28/21 A2987 RMK A01 T02810212  RH  066%=      5-min Rain = 0
KCL2 161918Z 21010KT 28/21 A2987 RMK A01 T02800211  RH  066%=      5-min Rain = 0
KCL2 161919Z 21009KT 28/21 A2987 RMK A01 T02800210  RH  066%=      5-min Rain = 0
KCL2 161920Z 20006KT 28/21 A2987 RMK A01 T02800211  RH  066%=      5-min Rain = 0
KCL2 161921Z 20008KT 28/21 A2987 RMK A01 T02800211  RH  066%=      5-min Rain = 0
KCL2 161922Z 22004KT 28/21 A2987 RMK A01 T02800213  RH  067%=      5-min Rain = 0
KCL2 161923Z 24005KT 28/21 A2988 RMK A01 T02800214  RH  067%=      5-min Rain = 0
KCL2 161924Z 27003KT 28/22 A2988 RMK A01 T02800215  RH  068%=      5-min Rain = 0
KCL2 161925Z 35009G15KT 28/22 A2988 RMK A01 T02790216  RH  069%=      5-min Rain = 0
KCL2 161926Z 34009G15KT 27/21 A2989 RMK A01 T02730211  RH  069%=      5-min Rain = 0
KCL2 161927Z 35009KT 26/21 A2989 RMK A01 T02600209  RH  073%=      5-min Rain = 0
KCL2 161928Z 02010KT 25/21 A2989 RMK A01 T02520210  RH  077%=      5-min Rain = 0
KCL2 161929Z 02013KT 25/21 A2989 RMK A01 T02480210  RH  079%=      5-min Rain = 0
KCL2 161930Z 02010KT 24/21 A2989 RMK A01 T02440211  RH  082%=      5-min Rain = 0
KCL2 161931Z 03012KT 24/21 A2989 RMK A01 T02420211  RH  083%=      5-min Rain = 0
KCL2 161932Z 03015KT 24/21 A2989 RMK A01 T02410211  RH  084%=      5-min Rain = 0
KCL2 161933Z 04012KT 24/21 A2989 RMK A01 T02380211  RH  085%=      5-min Rain = 0
KCL2 161934Z 04010KT 24/21 A2989 RMK A01 T02370212  RH  086%=      5-min Rain = 0
KCL2 161935Z 04011KT 24/21 A2989 RMK A01 T02370209  RH  084%=      5-min Rain = 0
KCL2 161936Z 05011KT 24/21 A2989 RMK A01 T02360205  RH  083%=      5-min Rain = 0
KCL2 161937Z 05010KT 24/20 A2989 RMK A01 T02360204  RH  082%=      5-min Rain = 0
KCL2 161938Z 06010KT 24/20 A2989 RMK A01 T02350203  RH  082%=      5-min Rain = 0
KCL2 161939Z 06010KT 23/20 A2989 RMK A01 T02340202  RH  082%=      5-min Rain = 0
KCL2 161940Z 05010KT 23/20 A2989 RMK A01 T02340202  RH  083%=      5-min Rain = 0
KCL2 161941Z 04011KT 23/20 A2989 RMK A01 T02330202  RH  083%=      5-min Rain = 0
KCL2 161942Z 04010KT 23/20 A2989 RMK A01 T02310202  RH  084%=      5-min Rain = 0
KCL2 161943Z 05010KT 23/20 A2989 RMK A01 T02310202  RH  084%=      5-min Rain = 0
KCL2 161944Z 05011KT 23/20 A2988 RMK A01 T02300201  RH  084%=      5-min Rain = 0
KCL2 161945Z 06010KT 23/20 A2988 RMK A01 T02290200  RH  084%=      5-min Rain = 0
KCL2 161946Z 05010KT 23/20 A2988 RMK A01 T02300200  RH  083%=      5-min Rain = 0
KCL2 161947Z 05010KT 23/20 A2988 RMK A01 T02300200  RH  083%=      5-min Rain = 0
KCL2 161948Z 04009KT 23/20 A2988 RMK A01 T02290200  RH  084%=      5-min Rain = 0
KCL2 161949Z 03007KT 23/20 A2989 RMK A01 T02290200  RH  084%=      5-min Rain = 0
KCL2 161950Z 01007KT 23/20 A2989 RMK A01 T02290200  RH  084%=      5-min Rain = 0
KCL2 161951Z 01010KT 23/20 A2989 RMK A01 T02290199  RH  083%=      5-min Rain = 0
KCL2 161952Z 01010KT 23/20 A2989 RMK A01 T02300199  RH  083%=      5-min Rain = 0
KCL2 161953Z 01010KT 23/20 A299 RMK A01 T02290199  RH  083%=      5-min Rain = 0
KCL2 161954Z 00008KT 23/20 A299 RMK A01 T02300199  RH  083%=      5-min Rain = 0
KCL2 161955Z 01009KT 23/20 A2989 RMK A01 T02300199  RH  083%=      5-min Rain = 0
KCL2 161956Z 02009KT 23/20 A2989 RMK A01 T02310199  RH  082%=      5-min Rain = 0
KCL2 161957Z 02009KT 23/20 A2989 RMK A01 T02320199  RH  082%=      5-min Rain = 0
KCL2 161958Z 03009KT 23/20 A2989 RMK A01 T02320199  RH  082%=      5-min Rain = 0
KCL2 161959Z 03007KT 23/20 A2989 RMK A01 T02320199  RH  082%=      5-min Rain = 0
KCL2 162000Z 04008KT 23/20 A2989 RMK A01 T02330201  RH  082%=      5-min Rain = 0
KCL2 162001Z 04009KT 23/20 A2989 RMK A01 T02330201  RH  082%=      5-min Rain = 0
KCL2 162002Z 04011KT 23/20 A2989 RMK A01 T02340201  RH  082%=      5-min Rain = 0
KCL2 162003Z 04011KT 23/20 A2989 RMK A01 T02340202  RH  082%=      5-min Rain = 0
KCL2 162004Z 04010KT 23/20 A2989 RMK A01 T02330202  RH  083%=      5-min Rain = 0
KCL2 162005Z 04010KT 23/21 A2989 RMK A01 T02320205  RH  085%=      5-min Rain = 0
KCL2 162006Z 04010KT 23/21 A299 RMK A01 T02310205  RH  085%=      5-min Rain = 0
KCL2 162007Z 05011KT 23/20 A299 RMK A01 T02290204  RH  086%=      5-min Rain = 0
KCL2 162008Z 04012KT 23/20 A299 RMK A01 T02260204  RH  087%=      5-min Rain = 0.01
KCL2 162009Z 05010KT 22/20 A299 RMK A01 T02240204  RH  088%=      5-min Rain = 0
KCL2 162010Z 05011KT 22/21 A2989 RMK A01 T02240206  RH  090%=      5-min Rain = 0
KCL2 162011Z 05010KT 22/20 A2989 RMK A01 T02230204  RH  089%=      5-min Rain = 0
KCL2 162012Z 06011KT 22/21 A2989 RMK A01 T02230207  RH  091%=      5-min Rain = 0
KCL2 162013Z 06011KT 22/21 A2989 RMK A01 T02230207  RH  091%=      5-min Rain = 0
KCL2 162014Z 06012KT 22/21 A2989 RMK A01 T02220207  RH  091%=      5-min Rain = 0
KCL2 162015Z 05011KT 22/21 A2988 RMK A01 T02220207  RH  091%=      5-min Rain = 0
KCL2 162016Z 06011KT 22/21 A2988 RMK A01 T02220208  RH  092%=      5-min Rain = 0
KCL2 162017Z 05011KT 22/21 A2988 RMK A01 T02210208  RH  092%=      5-min Rain = 0.01
KCL2 162018Z 05012KT 22/21 A2988 RMK A01 T02210209  RH  093%=      5-min Rain = 0
KCL2 162019Z 04012KT 22/21 A2988 RMK A01 T02210207  RH  092%=      5-min Rain = 0.01
KCL2 162020Z 05012KT 22/21 A2988 RMK A01 T02210207  RH  092%=      5-min Rain = 0
KCL2 162021Z 04013KT 22/21 A2989 RMK A01 T02200206  RH  091%=      5-min Rain = 0.01
KCL2 162022Z 03011KT 22/21 A2989 RMK A01 T02190205  RH  091%=      5-min Rain = 0
KCL2 162023Z 03011KT 22/21 A2989 RMK A01 T02190206  RH  092%=      5-min Rain = 0.01
KCL2 162024Z 03009KT 22/21 A2989 RMK A01 T02180206  RH  093%=      5-min Rain = 0
KCL2 162025Z 03010KT 22/21 A2989 RMK A01 T02180206  RH  093%=      5-min Rain = 0
KCL2 162026Z 04010KT 22/21 A2989 RMK A01 T02170206  RH  094%=      5-min Rain = 0
KCL2 162027Z 04011KT 22/21 A2989 RMK A01 T02160205  RH  093%=      5-min Rain = 0.01
KCL2 162028Z 03011KT 22/20 A2988 RMK A01 T02160204  RH  093%=      5-min Rain = 0
KCL2 162029Z 03008KT 22/20 A2988 RMK A01 T02150204  RH  094%=      5-min Rain = 0
KCL2 162030Z 02008KT 22/20 A2989 RMK A01 T02150204  RH  093%=      5-min Rain = 0
KCL2 162031Z 01008KT 21/20 A2989 RMK A01 T02130197  RH  091%=      5-min Rain = 0
KCL2 162032Z 01010KT 21/19 A2989 RMK A01 T02110194  RH  090%=      5-min Rain = 0
KCL2 162033Z 01010KT 21/19 A299 RMK A01 T02100193  RH  090%=      5-min Rain = 0
KCL2 162034Z 00006KT 21/19 A299 RMK A01 T02100194  RH  090%=      5-min Rain = 0
KCL2 162035Z 00007KT 21/20 A299 RMK A01 T02090195  RH  091%=      5-min Rain = 0
KCL2 162036Z 35006KT 21/20 A299 RMK A01 T02090195  RH  091%=      5-min Rain = 0
KCL2 162037Z 00007KT 21/20 A299 RMK A01 T02090195  RH  092%=      5-min Rain = 0
KCL2 162038Z 02008KT 21/20 A299 RMK A01 T02100197  RH  092%=      5-min Rain = 0
KCL2 162039Z 02008KT 21/20 A299 RMK A01 T02100196  RH  092%=      5-min Rain = 0
KCL2 162040Z 01007KT 21/20 A299 RMK A01 T02100197  RH  092%=      5-min Rain = 0
KCL2 162041Z 02008KT 21/20 A299 RMK A01 T02090197  RH  092%=      5-min Rain = 0
KCL2 162042Z 03008KT 21/20 A299 RMK A01 T02090197  RH  093%=      5-min Rain = 0
KCL2 162043Z 03009KT 21/20 A299 RMK A01 T02100198  RH  093%=      5-min Rain = 0
KCL2 162044Z 03010KT 21/20 A2989 RMK A01 T02100198  RH  093%=      5-min Rain = 0
KCL2 162045Z 03011KT 21/20 A2989 RMK A01 T02100197  RH  092%=      5-min Rain = 0
KCL2 162046Z 04009KT 21/20 A2989 RMK A01 T02100197  RH  092%=      5-min Rain = 0
KCL2 162047Z 04009KT 21/20 A2989 RMK A01 T02110198  RH  092%=      5-min Rain = 0.01
KCL2 162048Z 04009KT 21/20 A299 RMK A01 T02110198  RH  092%=      5-min Rain = 0
KCL2 162049Z 04008KT 21/20 A299 RMK A01 T02110198  RH  092%=      5-min Rain = 0
KCL2 162050Z 04008KT 21/20 A299 RMK A01 T02110198  RH  092%=      5-min Rain = 0
KCL2 162051Z 04009KT 21/20 A299 RMK A01 T02110197  RH  092%=      5-min Rain = 0
KCL2 162052Z 04009KT 21/20 A299 RMK A01 T02120198  RH  092%=      5-min Rain = 0
KCL2 162053Z 04009KT 21/20 A2989 RMK A01 T02120198  RH  092%=      5-min Rain = 0
KCL2 162054Z 04008KT 21/20 A2989 RMK A01 T02120200  RH  092%=      5-min Rain = 0
KCL2 162055Z 04009KT 21/20 A2989 RMK A01 T02120199  RH  092%=      5-min Rain = 0
KCL2 162056Z 04009KT 21/20 A2989 RMK A01 T02120200  RH  093%=      5-min Rain = 0
KCL2 162057Z 04009KT 21/20 A2989 RMK A01 T02120200  RH  093%=      5-min Rain = 0
KCL2 162058Z 05009KT 21/20 A2989 RMK A01 T02120200  RH  093%=      5-min Rain = 0
KCL2 162059Z 05009KT 21/20 A2989 RMK A01 T02120200  RH  093%=      5-min Rain = 0
KCL2 162100Z 04009KT 21/20 A2989 RMK A01 T02120200  RH  093%=      5-min Rain = 0
KCL2 162101Z 04009KT 21/20 A2989 RMK A01 T02120200  RH  093%=      5-min Rain = 0
KCL2 162102Z 04010KT 21/20 A2988 RMK A01 T02120199  RH  092%=      5-min Rain = 0
KCL2 162103Z 04010KT 21/20 A2988 RMK A01 T02120200  RH  092%=      5-min Rain = 0
KCL2 162104Z 04010KT 21/20 A2988 RMK A01 T02120199  RH  092%=      5-min Rain = 0
KCL2 162105Z 04010KT 21/20 A2988 RMK A01 T02120199  RH  092%=      5-min Rain = 0
KCL2 162106Z 04011KT 21/20 A2988 RMK A01 T02120200  RH  093%=      5-min Rain = 0
KCL2 162107Z 04009KT 21/20 A2988 RMK A01 T02120200  RH  093%=      5-min Rain = 0
KCL2 162108Z 05010KT 21/20 A2988 RMK A01 T02120200  RH  093%=      5-min Rain = 0
KCL2 162109Z 05010KT 21/20 A2988 RMK A01 T02120201  RH  093%=      5-min Rain = 0
KCL2 162110Z 06010KT 21/20 A2988 RMK A01 T02120202  RH  093%=      5-min Rain = 0
KCL2 162111Z 05011KT 21/20 A2988 RMK A01 T02130202  RH  093%=      5-min Rain = 0
KCL2 162112Z 05011KT 21/20 A2988 RMK A01 T02130201  RH  093%=      5-min Rain = 0
KCL2 162113Z 04010KT 21/20 A2988 RMK A01 T02130201  RH  093%=      5-min Rain = 0
KCL2 162114Z 03009KT 21/20 A2988 RMK A01 T02130201  RH  093%=      5-min Rain = 0
KCL2 162115Z 03009KT 21/20 A2988 RMK A01 T02130202  RH  094%=      5-min Rain = 0
KCL2 162116Z 03010KT 21/20 A2988 RMK A01 T02130203  RH  094%=      5-min Rain = 0
KCL2 162117Z 03011KT 21/20 A2988 RMK A01 T02130203  RH  094%=      5-min Rain = 0
KCL2 162118Z 02009KT 21/20 A2987 RMK A01 T02120202  RH  094%=      5-min Rain = 0
KCL2 162119Z 03009KT 21/20 A2987 RMK A01 T02120203  RH  095%=      5-min Rain = 0
KCL2 162120Z 03010KT 21/20 A2987 RMK A01 T02120203  RH  094%=      5-min Rain = 0
KCL2 162121Z 03009KT 21/20 A2987 RMK A01 T02130202  RH  094%=      5-min Rain = 0
KCL2 162122Z 04008KT 21/20 A2987 RMK A01 T02130203  RH  094%=      5-min Rain = 0
KCL2 162123Z 05007KT 21/20 A2987 RMK A01 T02130203  RH  094%=      5-min Rain = 0
KCL2 162124Z 05009KT 21/20 A2987 RMK A01 T02130203  RH  094%=      5-min Rain = 0
KCL2 162125Z 04008KT 21/20 A2987 RMK A01 T02130201  RH  093%=      5-min Rain = 0
KCL2 162126Z 04007KT 21/20 A2987 RMK A01 T02130201  RH  093%=      5-min Rain = 0
KCL2 162127Z 03008KT 21/20 A2987 RMK A01 T02130201  RH  093%=      5-min Rain = 0
KCL2 162128Z 02006KT 21/20 A2987 RMK A01 T02130201  RH  093%=      5-min Rain = 0
KCL2 162129Z 01006KT 21/20 A2987 RMK A01 T02140203  RH  093%=      5-min Rain = 0
KCL2 162130Z 00005KT 21/20 A2987 RMK A01 T02140202  RH  093%=      5-min Rain = 0
KCL2 162131Z 01005KT 21/20 A2987 RMK A01 T02140202  RH  093%=      5-min Rain = 0
KCL2 162132Z 00005KT 22/20 A2987 RMK A01 T02150203  RH  093%=      5-min Rain = 0
KCL2 162133Z 01005KT 22/20 A2987 RMK A01 T02150203  RH  093%=      5-min Rain = 0
KCL2 162134Z 01004KT 22/20 A2987 RMK A01 T02160203  RH  093%=      5-min Rain = 0
KCL2 162135Z 02006KT 22/21 A2988 RMK A01 T02170205  RH  093%=      5-min Rain = 0
KCL2 162136Z 02008KT 22/20 A2988 RMK A01 T02170204  RH  092%=      5-min Rain = 0
KCL2 162137Z 02007KT 22/20 A2988 RMK A01 T02170204  RH  092%=      5-min Rain = 0
KCL2 162138Z 02007KT 22/20 A2988 RMK A01 T02170204  RH  092%=      5-min Rain = 0
KCL2 162139Z 03007KT 22/21 A2988 RMK A01 T02170205  RH  093%=      5-min Rain = 0
KCL2 162140Z 05007KT 22/21 A2988 RMK A01 T02170205  RH  093%=      5-min Rain = 0
KCL2 162141Z 05007KT 22/21 A2988 RMK A01 T02180208  RH  094%=      5-min Rain = 0
KCL2 162142Z 05008KT 22/21 A2988 RMK A01 T02190209  RH  094%=      5-min Rain = 0
KCL2 162143Z 05010KT 22/21 A2988 RMK A01 T02180207  RH  093%=      5-min Rain = 0
KCL2 162144Z 05009KT 22/20 A2988 RMK A01 T02170204  RH  092%=      5-min Rain = 0
KCL2 162145Z 05009KT 22/20 A2988 RMK A01 T02170204  RH  092%=      5-min Rain = 0
KCL2 162146Z 06008KT 22/20 A2988 RMK A01 T02170204  RH  092%=      5-min Rain = 0
KCL2 162147Z 06009KT 22/21 A2988 RMK A01 T02170205  RH  093%=      5-min Rain = 0
KCL2 162148Z 04008KT 22/21 A2988 RMK A01 T02170205  RH  092%=      5-min Rain = 0
KCL2 162149Z 05006KT 22/21 A2988 RMK A01 T02170205  RH  093%=      5-min Rain = 0
KCL2 162150Z 05005KT 22/21 A2987 RMK A01 T02180207  RH  093%=      5-min Rain = 0
KCL2 162151Z 04005KT 22/21 A2987 RMK A01 T02180207  RH  093%=      5-min Rain = 0
KCL2 162152Z 03003KT 22/21 A2988 RMK A01 T02190208  RH  093%=      5-min Rain = 0
KCL2 162153Z 04005KT 22/21 A2988 RMK A01 T02200208  RH  093%=      5-min Rain = 0
KCL2 162154Z 04004KT 22/21 A2988 RMK A01 T02200208  RH  093%=      5-min Rain = 0
KCL2 162155Z 05004KT 22/21 A2988 RMK A01 T02210208  RH  093%=      5-min Rain = 0
KCL2 162156Z 05004KT 22/21 A2988 RMK A01 T02210208  RH  092%=      5-min Rain = 0
KCL2 162157Z 06004KT 22/21 A2988 RMK A01 T02210208  RH  092%=      5-min Rain = 0
KCL2 162158Z 05005KT 22/21 A2988 RMK A01 T02220208  RH  092%=      5-min Rain = 0
KCL2 162159Z 05006KT 22/21 A2987 RMK A01 T02220208  RH  092%=      5-min Rain = 0
KCL2 162200Z 04007KT 22/21 A2987 RMK A01 T02220206  RH  091%=      5-min Rain = 0
KCL2 162201Z 03007KT 22/21 A2987 RMK A01 T02220205  RH  090%=      5-min Rain = 0
KCL2 162202Z 03007KT 22/21 A2987 RMK A01 T02220206  RH  091%=      5-min Rain = 0
KCL2 162203Z 03007KT 22/21 A2987 RMK A01 T02220206  RH  091%=      5-min Rain = 0
KCL2 162204Z 04006KT 22/21 A2987 RMK A01 T02220208  RH  092%=      5-min Rain = 0
KCL2 162205Z 03006KT 22/21 A2987 RMK A01 T02240209  RH  092%=      5-min Rain = 0
KCL2 162206Z 03007KT 22/21 A2987 RMK A01 T02240208  RH  091%=      5-min Rain = 0
KCL2 162207Z 03006KT 22/21 A2987 RMK A01 T02240208  RH  091%=      5-min Rain = 0
KCL2 162208Z 03007KT 22/21 A2987 RMK A01 T02240207  RH  090%=      5-min Rain = 0
KCL2 162209Z 03007KT 22/21 A2987 RMK A01 T02240206  RH  090%=      5-min Rain = 0
KCL2 162210Z 03005KT 22/21 A2987 RMK A01 T02240208  RH  091%=      5-min Rain = 0
KCL2 162211Z 03007KT 23/21 A2987 RMK A01 T02260209  RH  091%=      5-min Rain = 0
KCL2 162212Z 03006KT 23/21 A2987 RMK A01 T02270209  RH  090%=      5-min Rain = 0
KCL2 162213Z 04006KT 23/21 A2987 RMK A01 T02270210  RH  090%=      5-min Rain = 0
KCL2 162214Z 05008KT 23/21 A2987 RMK A01 T02280209  RH  089%=      5-min Rain = 0
KCL2 162215Z 05010KT 23/21 A2987 RMK A01 T02280208  RH  089%=      5-min Rain = 0
KCL2 162216Z 05009KT 23/21 A2987 RMK A01 T02280208  RH  088%=      5-min Rain = 0
KCL2 162217Z 05008KT 23/21 A2987 RMK A01 T02280209  RH  089%=      5-min Rain = 0
KCL2 162218Z 06009KT 23/21 A2987 RMK A01 T02290211  RH  090%=      5-min Rain = 0
KCL2 162219Z 05010KT 23/21 A2988 RMK A01 T02300212  RH  089%=      5-min Rain = 0
KCL2 162220Z 05010KT 23/21 A2988 RMK A01 T02310211  RH  088%=      5-min Rain = 0
KCL2 162221Z 06010KT 23/21 A2988 RMK A01 T02310210  RH  088%=      5-min Rain = 0
KCL2 162222Z 05011KT 23/21 A2988 RMK A01 T02310211  RH  089%=      5-min Rain = 0
KCL2 162223Z 05009KT 23/21 A2988 RMK A01 T02320210  RH  088%=      5-min Rain = 0
KCL2 162224Z 06011KT 23/21 A2988 RMK A01 T02320210  RH  088%=      5-min Rain = 0
KCL2 162225Z 05011KT 23/21 A2988 RMK A01 T02320212  RH  088%=      5-min Rain = 0
KCL2 162226Z 05010KT 23/21 A2988 RMK A01 T02320212  RH  089%=      5-min Rain = 0
KCL2 162227Z 07009KT 23/21 A2988 RMK A01 T02320211  RH  088%=      5-min Rain = 0
KCL2 162228Z 06009KT 23/21 A2988 RMK A01 T02320212  RH  089%=      5-min Rain = 0
KCL2 162229Z 05009KT 23/21 A2987 RMK A01 T02330212  RH  088%=      5-min Rain = 0
KCL2 162230Z 04008KT 23/21 A2987 RMK A01 T02330213  RH  088%=      5-min Rain = 0
KCL2 162231Z 03010KT 23/21 A2987 RMK A01 T02340212  RH  087%=      5-min Rain = 0
KCL2 162232Z 03010KT 23/21 A2987 RMK A01 T02340211  RH  087%=      5-min Rain = 0
KCL2 162233Z 04009KT 23/21 A2987 RMK A01 T02340211  RH  087%=      5-min Rain = 0
KCL2 162234Z 05009KT 23/21 A2987 RMK A01 T02340211  RH  087%=      5-min Rain = 0
KCL2 162235Z 05008KT 23/21 A2987 RMK A01 T02340212  RH  087%=      5-min Rain = 0
KCL2 162236Z 04008KT 24/22 A2987 RMK A01 T02350215  RH  089%=      5-min Rain = 0
KCL2 162237Z 05008KT 24/21 A2987 RMK A01 T02360214  RH  087%=      5-min Rain = 0
KCL2 162238Z 04006KT 24/22 A2987 RMK A01 T02380216  RH  088%=      5-min Rain = 0
KCL2 162239Z 05007KT 24/22 A2987 RMK A01 T02390218  RH  088%=      5-min Rain = 0
KCL2 162240Z 06007KT 24/22 A2987 RMK A01 T02400217  RH  087%=      5-min Rain = 0
KCL2 162241Z 07009KT 24/22 A2987 RMK A01 T02420218  RH  086%=      5-min Rain = 0
KCL2 162242Z 07009KT 24/22 A2988 RMK A01 T02420215  RH  085%=      5-min Rain = 0
KCL2 162243Z 07008KT 24/22 A2988 RMK A01 T02420216  RH  085%=      5-min Rain = 0
KCL2 162244Z 06008KT 24/21 A2988 RMK A01 T02410213  RH  084%=      5-min Rain = 0
KCL2 162245Z 07009KT 24/21 A2988 RMK A01 T02400213  RH  085%=      5-min Rain = 0
KCL2 162246Z 07011KT 24/21 A2988 RMK A01 T02390211  RH  085%=      5-min Rain = 0
KCL2 162247Z 05009KT 24/21 A2987 RMK A01 T02380211  RH  085%=      5-min Rain = 0
KCL2 162248Z 05009KT 24/21 A2987 RMK A01 T02380214  RH  086%=      5-min Rain = 0
KCL2 162249Z 04010KT 24/21 A2987 RMK A01 T02380213  RH  086%=      5-min Rain = 0
KCL2 162250Z 04010KT 24/21 A2987 RMK A01 T02380212  RH  085%=      5-min Rain = 0
KCL2 162251Z 04008KT 24/22 A2987 RMK A01 T02390215  RH  086%=      5-min Rain = 0
KCL2 162252Z 05008KT 24/22 A2987 RMK A01 T02410216  RH  086%=      5-min Rain = 0
KCL2 162253Z 06009KT 24/22 A2987 RMK A01 T02420216  RH  085%=      5-min Rain = 0
KCL2 162254Z 05009KT 24/22 A2987 RMK A01 T02430215  RH  084%=      5-min Rain = 0
KCL2 162255Z 05009KT 24/22 A2987 RMK A01 T02420216  RH  085%=      5-min Rain = 0
KCL2 162256Z 04010KT 24/22 A2987 RMK A01 T02430217  RH  086%=      5-min Rain = 0
KCL2 162257Z 05009KT 24/22 A2987 RMK A01 T02440217  RH  085%=      5-min Rain = 0
KCL2 162258Z 05008KT 24/22 A2987 RMK A01 T02440217  RH  085%=      5-min Rain = 0
KCL2 162259Z 06009KT 25/22 A2987 RMK A01 T02460219  RH  085%=      5-min Rain = 0
KCL2 162300Z 04010KT 25/22 A2986 RMK A01 T02480218  RH  084%=      5-min Rain = 0
KCL2 162301Z 05011KT 25/22 A2986 RMK A01 T02480217  RH  083%=      5-min Rain = 0
KCL2 162302Z 05010KT 25/22 A2986 RMK A01 T02470215  RH  082%=      5-min Rain = 0
KCL2 162303Z 05011KT 25/22 A2987 RMK A01 T02470215  RH  082%=      5-min Rain = 0
KCL2 162304Z 05009KT 25/22 A2987 RMK A01 T02460215  RH  082%=      5-min Rain = 0
KCL2 162305Z 06010KT 25/22 A2987 RMK A01 T02460215  RH  083%=      5-min Rain = 0
KCL2 162306Z 06010KT 25/22 A2987 RMK A01 T02470216  RH  083%=      5-min Rain = 0
KCL2 162307Z 04007KT 25/22 A2987 RMK A01 T02470217  RH  083%=      5-min Rain = 0
KCL2 162308Z 05009KT 25/22 A2987 RMK A01 T02500219  RH  083%=      5-min Rain = 0
KCL2 162309Z 05010KT 25/22 A2987 RMK A01 T02510218  RH  082%=      5-min Rain = 0
KCL2 162310Z 05011KT 25/22 A2987 RMK A01 T02520217  RH  081%=      5-min Rain = 0
KCL2 162311Z 05012KT 25/21 A2987 RMK A01 T02510214  RH  080%=      5-min Rain = 0
KCL2 162312Z 05011KT 25/21 A2987 RMK A01 T02470212  RH  081%=      5-min Rain = 0
KCL2 162313Z 04010KT 25/21 A2987 RMK A01 T02460211  RH  081%=      5-min Rain = 0
KCL2 162314Z 04009KT 25/21 A2987 RMK A01 T02450213  RH  082%=      5-min Rain = 0
KCL2 162315Z 04010KT 25/21 A2987 RMK A01 T02450212  RH  082%=      5-min Rain = 0
KCL2 162316Z 04012KT 25/21 A2987 RMK A01 T02460211  RH  081%=      5-min Rain = 0
KCL2 162317Z 04012KT 25/21 A2987 RMK A01 T02460211  RH  081%=      5-min Rain = 0
KCL2 162318Z 04009KT 25/21 A2987 RMK A01 T02460211  RH  081%=      5-min Rain = 0
KCL2 162319Z 03009KT 25/21 A2987 RMK A01 T02450213  RH  082%=      5-min Rain = 0
KCL2 162320Z 04008KT 25/21 A2987 RMK A01 T02460212  RH  082%=      5-min Rain = 0
KCL2 162321Z 05008KT 25/21 A2987 RMK A01 T02460214  RH  082%=      5-min Rain = 0
KCL2 162322Z 06010KT 25/21 A2987 RMK A01 T02470213  RH  081%=      5-min Rain = 0
KCL2 162323Z 05011KT 25/21 A2987 RMK A01 T02470212  RH  081%=      5-min Rain = 0
KCL2 162324Z 05011KT 25/21 A2987 RMK A01 T02470210  RH  080%=      5-min Rain = 0
KCL2 162325Z 04011KT 25/21 A2987 RMK A01 T02450210  RH  081%=      5-min Rain = 0
KCL2 162326Z 04009KT 25/21 A2987 RMK A01 T02450212  RH  082%=      5-min Rain = 0
KCL2 162327Z 05009KT 25/21 A2987 RMK A01 T02460213  RH  082%=      5-min Rain = 0
KCL2 162328Z 06011KT 25/21 A2987 RMK A01 T02480212  RH  081%=      5-min Rain = 0
KCL2 162329Z 05011KT 25/21 A2987 RMK A01 T02490211  RH  079%=      5-min Rain = 0
KCL2 162330Z 05012KT 25/21 A2987 RMK A01 T02500213  RH  080%=      5-min Rain = 0
KCL2 162331Z 05012KT 25/21 A2987 RMK A01 T02500211  RH  079%=      5-min Rain = 0
KCL2 162332Z 06011KT 25/21 A2987 RMK A01 T02490208  RH  078%=      5-min Rain = 0
KCL2 162333Z 05010KT 25/21 A2987 RMK A01 T02480209  RH  079%=      5-min Rain = 0
KCL2 162334Z 04011KT 25/21 A2987 RMK A01 T02480209  RH  079%=      5-min Rain = 0
KCL2 162335Z 05008KT 25/21 A2987 RMK A01 T02460209  RH  080%=      5-min Rain = 0
KCL2 162336Z 05007KT 25/21 A2987 RMK A01 T02470212  RH  081%=      5-min Rain = 0
KCL2 162337Z 04007KT 25/21 A2987 RMK A01 T02480214  RH  081%=      5-min Rain = 0
KCL2 162338Z 04009KT 25/21 A2987 RMK A01 T02490212  RH  080%=      5-min Rain = 0
KCL2 162339Z 04007KT 25/21 A2987 RMK A01 T02490213  RH  080%=      5-min Rain = 0
KCL2 162340Z 06005KT 25/21 A2987 RMK A01 T02480213  RH  081%=      5-min Rain = 0
KCL2 162341Z 06007KT 25/22 A2987 RMK A01 T02490215  RH  081%=      5-min Rain = 0
KCL2 162342Z 05005KT 25/22 A2987 RMK A01 T02500215  RH  081%=      5-min Rain = 0
KCL2 162343Z 05005KT 25/21 A2987 RMK A01 T02500214  RH  081%=      5-min Rain = 0
KCL2 162344Z 07005KT 25/22 A2987 RMK A01 T02500215  RH  081%=      5-min Rain = 0
KCL2 162345Z 07006KT 25/21 A2987 RMK A01 T02500213  RH  080%=      5-min Rain = 0
KCL2 162346Z 06006KT 25/22 A2987 RMK A01 T02500216  RH  081%=      5-min Rain = 0
KCL2 162347Z 06007KT 25/21 A2987 RMK A01 T02510214  RH  080%=      5-min Rain = 0
KCL2 162348Z 05006KT 25/21 A2987 RMK A01 T02510214  RH  080%=      5-min Rain = 0
KCL2 162349Z 05005KT 25/21 A2987 RMK A01 T02510213  RH  079%=      5-min Rain = 0
KCL2 162350Z 04005KT 25/22 A2987 RMK A01 T02510215  RH  080%=      5-min Rain = 0
KCL2 162351Z 05005KT 25/21 A2987 RMK A01 T02500214  RH  080%=      5-min Rain = 0
KCL2 162352Z 04006KT 25/21 A2987 RMK A01 T02510213  RH  080%=      5-min Rain = 0
KCL2 162353Z 05005KT 25/21 A2987 RMK A01 T02510214  RH  080%=      5-min Rain = 0
KCL2 162354Z 05005KT 25/21 A2987 RMK A01 T02520214  RH  079%=      5-min Rain = 0
KCL2 162355Z 05005KT 25/21 A2987 RMK A01 T02520214  RH  079%=      5-min Rain = 0
KCL2 162356Z 05004KT 25/21 A2987 RMK A01 T02520214  RH  079%=      5-min Rain = 0
KCL2 162357Z 06005KT 25/21 A2987 RMK A01 T02520214  RH  079%=      5-min Rain = 0
KCL2 162358Z 06005KT 25/21 A2987 RMK A01 T02530214  RH  079%=      5-min Rain = 0
KCL2 162359Z 05005KT 25/21 A2987 RMK A01 T02530214  RH  079%=      5-min Rain = 0
KCL2 170000Z 06004KT 25/21 A2987 RMK A01 T02520212  RH  078%=      5-min Rain = 0
KCL2 170001Z 07006KT 25/21 A2987 RMK A01 T02510214  RH  080%=      5-min Rain = 0
KCL2 170002Z 06006KT 25/21 A2987 RMK A01 T02510214  RH  080%=      5-min Rain = 0
KCL2 170003Z 06006KT 25/21 A2987 RMK A01 T02510211  RH  078%=      5-min Rain = 0
KCL2 170004Z 07007KT 25/21 A2987 RMK A01 T02510212  RH  079%=      5-min Rain = 0
KCL2 170005Z 06008KT 25/21 A2987 RMK A01 T02510212  RH  079%=      5-min Rain = 0
KCL2 170006Z 06007KT 25/21 A2987 RMK A01 T02520211  RH  078%=      5-min Rain = 0
KCL2 170007Z 05007KT 25/21 A2987 RMK A01 T02510212  RH  079%=      5-min Rain = 0
KCL2 170008Z 05008KT 25/21 A2987 RMK A01 T02510213  RH  079%=      5-min Rain = 0
KCL2 170009Z 05007KT 25/21 A2987 RMK A01 T02510211  RH  079%=      5-min Rain = 0
KCL2 170010Z 05007KT 25/21 A2987 RMK A01 T02500212  RH  079%=      5-min Rain = 0
KCL2 170011Z 06008KT 25/21 A2987 RMK A01 T02500213  RH  080%=      5-min Rain = 0
KCL2 170012Z 06009KT 25/21 A2987 RMK A01 T02510212  RH  079%=      5-min Rain = 0
KCL2 170013Z 05007KT 25/21 A2987 RMK A01 T02510213  RH  079%=      5-min Rain = 0
KCL2 170014Z 04007KT 25/21 A2986 RMK A01 T02510214  RH  080%=      5-min Rain = 0
KCL2 170015Z 04009KT 25/21 A2986 RMK A01 T02510208  RH  077%=      5-min Rain = 0
KCL2 170016Z 03007KT 25/21 A2986 RMK A01 T02510206  RH  076%=      5-min Rain = 0
KCL2 170017Z 03007KT 25/21 A2986 RMK A01 T02510208  RH  077%=      5-min Rain = 0
KCL2 170018Z 04006KT 25/21 A2986 RMK A01 T02520210  RH  078%=      5-min Rain = 0
KCL2 170019Z 03005KT 25/21 A2986 RMK A01 T02520214  RH  079%=      5-min Rain = 0
KCL2 170020Z 03005KT 25/21 A2986 RMK A01 T02520213  RH  079%=      5-min Rain = 0
KCL2 170021Z 06007KT 25/22 A2986 RMK A01 T02520215  RH  080%=      5-min Rain = 0
KCL2 170022Z 05009KT 25/21 A2986 RMK A01 T02520213  RH  079%=      5-min Rain = 0
KCL2 170023Z 05009KT 25/21 A2987 RMK A01 T02510214  RH  080%=      5-min Rain = 0
KCL2 170024Z 06009KT 25/21 A2987 RMK A01 T02510213  RH  080%=      5-min Rain = 0
KCL2 170025Z 05009KT 25/21 A2987 RMK A01 T02510213  RH  080%=      5-min Rain = 0
KCL2 170026Z 05008KT 25/21 A2987 RMK A01 T02510212  RH  079%=      5-min Rain = 0
KCL2 170027Z 05009KT 25/21 A2987 RMK A01 T02500213  RH  080%=      5-min Rain = 0
KCL2 170028Z 05008KT 25/21 A2987 RMK A01 T02500212  RH  079%=      5-min Rain = 0
KCL2 170029Z 05007KT 25/21 A2987 RMK A01 T02500213  RH  079%=      5-min Rain = 0
KCL2 170030Z 04008KT 25/21 A2986 RMK A01 T02500214  RH  080%=      5-min Rain = 0
KCL2 170031Z 05010KT 25/21 A2987 RMK A01 T02500212  RH  079%=      5-min Rain = 0
KCL2 170032Z 04009KT 25/21 A2986 RMK A01 T02500212  RH  080%=      5-min Rain = 0
KCL2 170033Z 04009KT 25/21 A2986 RMK A01 T02490212  RH  080%=      5-min Rain = 0
KCL2 170034Z 04008KT 25/21 A2986 RMK A01 T02480212  RH  080%=      5-min Rain = 0
KCL2 170035Z 04009KT 25/21 A2986 RMK A01 T02480212  RH  080%=      5-min Rain = 0
KCL2 170036Z 04009KT 25/21 A2986 RMK A01 T02480211  RH  080%=      5-min Rain = 0
KCL2 170037Z 05008KT 25/21 A2986 RMK A01 T02480211  RH  080%=      5-min Rain = 0
KCL2 170038Z 04008KT 25/21 A2986 RMK A01 T02480211  RH  080%=      5-min Rain = 0
KCL2 170039Z 04007KT 25/21 A2986 RMK A01 T02480212  RH  080%=      5-min Rain = 0
KCL2 170040Z 05007KT 25/21 A2986 RMK A01 T02490213  RH  081%=      5-min Rain = 0
KCL2 170041Z 05007KT 25/21 A2986 RMK A01 T02480212  RH  081%=      5-min Rain = 0
KCL2 170042Z 05009KT 25/21 A2986 RMK A01 T02480211  RH  080%=      5-min Rain = 0
KCL2 170043Z 05008KT 25/21 A2986 RMK A01 T02480211  RH  080%=      5-min Rain = 0
KCL2 170044Z 06007KT 25/21 A2986 RMK A01 T02480212  RH  081%=      5-min Rain = 0
KCL2 170045Z 05008KT 25/21 A2986 RMK A01 T02480213  RH  081%=      5-min Rain = 0
KCL2 170046Z 05008KT 25/21 A2986 RMK A01 T02480211  RH  080%=      5-min Rain = 0
KCL2 170047Z 05008KT 25/21 A2986 RMK A01 T02480212  RH  080%=      5-min Rain = 0
KCL2 170048Z 05008KT 25/21 A2986 RMK A01 T02470211  RH  080%=      5-min Rain = 0
KCL2 170049Z 06008KT 25/21 A2986 RMK A01 T02470211  RH  080%=      5-min Rain = 0
KCL2 170050Z 05008KT 25/21 A2986 RMK A01 T02470212  RH  081%=      5-min Rain = 0
KCL2 170051Z 04008KT 25/21 A2986 RMK A01 T02460210  RH  080%=      5-min Rain = 0
KCL2 170052Z 05008KT 25/21 A2986 RMK A01 T02460211  RH  081%=      5-min Rain = 0
KCL2 170053Z 04008KT 25/21 A2986 RMK A01 T02460211  RH  081%=      5-min Rain = 0
KCL2 170054Z 04007KT 25/21 A2986 RMK A01 T02450211  RH  081%=      5-min Rain = 0
KCL2 170055Z 04007KT 25/21 A2986 RMK A01 T02450210  RH  081%=      5-min Rain = 0
KCL2 170056Z 04006KT 24/21 A2986 RMK A01 T02440208  RH  080%=      5-min Rain = 0
KCL2 170057Z 05006KT 25/21 A2986 RMK A01 T02450210  RH  081%=      5-min Rain = 0
KCL2 170058Z 05007KT 25/21 A2986 RMK A01 T02450211  RH  082%=      5-min Rain = 0
KCL2 170059Z 05008KT 24/21 A2986 RMK A01 T02440211  RH  082%=      5-min Rain = 0
KCL2 170100Z 05008KT 24/21 A2986 RMK A01 T02440211  RH  082%=      5-min Rain = 0
KCL2 170101Z 05007KT 24/21 A2986 RMK A01 T02440211  RH  082%=      5-min Rain = 0
KCL2 170102Z 05008KT 24/21 A2986 RMK A01 T02440211  RH  082%=      5-min Rain = 0
KCL2 170103Z 05007KT 24/21 A2986 RMK A01 T02440210  RH  082%=      5-min Rain = 0
KCL2 170104Z 05008KT 24/21 A2986 RMK A01 T02430211  RH  082%=      5-min Rain = 0
KCL2 170105Z 04008KT 24/21 A2986 RMK A01 T02430211  RH  082%=      5-min Rain = 0
KCL2 170106Z 04007KT 24/21 A2986 RMK A01 T02430210  RH  082%=      5-min Rain = 0
KCL2 170107Z 04006KT 24/21 A2986 RMK A01 T02430210  RH  082%=      5-min Rain = 0
KCL2 170108Z 04007KT 24/21 A2986 RMK A01 T02430210  RH  082%=      5-min Rain = 0
KCL2 170109Z 04006KT 24/21 A2986 RMK A01 T02430210  RH  082%=      5-min Rain = 0
KCL2 170110Z 04006KT 24/21 A2986 RMK A01 T02420211  RH  083%=      5-min Rain = 0
KCL2 170111Z 04006KT 24/21 A2986 RMK A01 T02420210  RH  083%=      5-min Rain = 0
KCL2 170112Z 04007KT 24/21 A2986 RMK A01 T02420211  RH  083%=      5-min Rain = 0
KCL2 170113Z 05006KT 24/21 A2986 RMK A01 T02410210  RH  082%=      5-min Rain = 0
KCL2 170114Z 05006KT 24/21 A2986 RMK A01 T02410210  RH  083%=      5-min Rain = 0
KCL2 170115Z 06006KT 24/21 A2986 RMK A01 T02410210  RH  083%=      5-min Rain = 0
KCL2 170116Z 06007KT 24/21 A2986 RMK A01 T02410210  RH  083%=      5-min Rain = 0
KCL2 170117Z 07005KT 24/21 A2986 RMK A01 T02410210  RH  083%=      5-min Rain = 0
KCL2 170118Z 06006KT 24/21 A2986 RMK A01 T02410210  RH  083%=      5-min Rain = 0
KCL2 170119Z 07006KT 24/21 A2986 RMK A01 T02410210  RH  083%=      5-min Rain = 0
KCL2 170120Z 07005KT 24/21 A2986 RMK A01 T02410209  RH  082%=      5-min Rain = 0
KCL2 170121Z 07006KT 24/21 A2987 RMK A01 T02410208  RH  082%=      5-min Rain = 0
KCL2 170122Z 07005KT 24/21 A2986 RMK A01 T02420209  RH  082%=      5-min Rain = 0
KCL2 170123Z 07005KT 24/21 A2986 RMK A01 T02420210  RH  083%=      5-min Rain = 0
KCL2 170124Z 07006KT 24/21 A2986 RMK A01 T02410210  RH  083%=      5-min Rain = 0
KCL2 170125Z 07007KT 24/21 A2986 RMK A01 T02410210  RH  083%=      5-min Rain = 0
KCL2 170126Z 06007KT 24/21 A2986 RMK A01 T02410210  RH  083%=      5-min Rain = 0
KCL2 170127Z 07006KT 24/21 A2986 RMK A01 T02400210  RH  083%=      5-min Rain = 0
KCL2 170128Z 07007KT 24/21 A2986 RMK A01 T02400211  RH  083%=      5-min Rain = 0
KCL2 170129Z 06007KT 24/21 A2987 RMK A01 T02410211  RH  083%=      5-min Rain = 0
KCL2 170130Z 06007KT 24/21 A2987 RMK A01 T02400211  RH  084%=      5-min Rain = 0
KCL2 170131Z 05007KT 24/21 A2987 RMK A01 T02400211  RH  084%=      5-min Rain = 0
KCL2 170132Z 04007KT 24/21 A2987 RMK A01 T02400212  RH  085%=      5-min Rain = 0
KCL2 170133Z 04007KT 24/21 A2987 RMK A01 T02390213  RH  085%=      5-min Rain = 0
KCL2 170134Z 04007KT 24/21 A2987 RMK A01 T02380213  RH  086%=      5-min Rain = 0
KCL2 170135Z 04008KT 24/21 A2987 RMK A01 T02370213  RH  086%=      5-min Rain = 0
KCL2 170136Z 04007KT 24/21 A2987 RMK A01 T02370212  RH  086%=      5-min Rain = 0
KCL2 170137Z 03006KT 24/21 A2987 RMK A01 T02370213  RH  087%=      5-min Rain = 0
KCL2 170138Z 04007KT 24/21 A2987 RMK A01 T02360212  RH  087%=      5-min Rain = 0
KCL2 170139Z 04007KT 24/21 A2987 RMK A01 T02360212  RH  087%=      5-min Rain = 0
KCL2 170140Z 04006KT 24/21 A2987 RMK A01 T02360213  RH  087%=      5-min Rain = 0
KCL2 170141Z 04006KT 24/21 A2987 RMK A01 T02350213  RH  087%=      5-min Rain = 0
KCL2 170142Z 04007KT 24/21 A2987 RMK A01 T02350213  RH  087%=      5-min Rain = 0
KCL2 170143Z 04007KT 24/21 A2987 RMK A01 T02350213  RH  088%=      5-min Rain = 0
KCL2 170144Z 04007KT 23/21 A2987 RMK A01 T02340213  RH  088%=      5-min Rain = 0
KCL2 170145Z 04006KT 23/21 A2987 RMK A01 T02340213  RH  088%=      5-min Rain = 0
KCL2 170146Z 04007KT 23/21 A2987 RMK A01 T02340213  RH  088%=      5-min Rain = 0
KCL2 170147Z 04008KT 23/21 A2987 RMK A01 T02340213  RH  088%=      5-min Rain = 0
KCL2 170148Z 05008KT 23/21 A2987 RMK A01 T02330213  RH  088%=      5-min Rain = 0
KCL2 170149Z 05006KT 23/21 A2987 RMK A01 T02330213  RH  089%=      5-min Rain = 0
KCL2 170150Z 05007KT 23/21 A2987 RMK A01 T02330213  RH  089%=      5-min Rain = 0
KCL2 170151Z 05007KT 23/21 A2987 RMK A01 T02330213  RH  089%=      5-min Rain = 0
KCL2 170152Z 05007KT 23/21 A2987 RMK A01 T02330214  RH  089%=      5-min Rain = 0
KCL2 170153Z 06007KT 23/21 A2987 RMK A01 T02330213  RH  089%=      5-min Rain = 0
KCL2 170154Z 05006KT 23/21 A2987 RMK A01 T02330213  RH  089%=      5-min Rain = 0
KCL2 170155Z 05007KT 23/21 A2988 RMK A01 T02330213  RH  089%=      5-min Rain = 0
KCL2 170156Z 06006KT 23/21 A2987 RMK A01 T02330213  RH  089%=      5-min Rain = 0
KCL2 170157Z 06007KT 23/21 A2987 RMK A01 T02330213  RH  088%=      5-min Rain = 0
KCL2 170158Z 06006KT 23/21 A2987 RMK A01 T02330213  RH  088%=      5-min Rain = 0
KCL2 170159Z 06007KT 23/21 A2987 RMK A01 T02340214  RH  088%=      5-min Rain = 0
KCL2 170200Z 06007KT 23/21 A2987 RMK A01 T02330212  RH  088%=      5-min Rain = 0
KCL2 170201Z 06007KT 23/21 A2987 RMK A01 T02340213  RH  088%=      5-min Rain = 0
KCL2 170202Z 06008KT 23/21 A2988 RMK A01 T02340212  RH  088%=      5-min Rain = 0
KCL2 170203Z 06007KT 23/21 A2988 RMK A01 T02340211  RH  087%=      5-min Rain = 0
KCL2 170204Z 06008KT 23/21 A2988 RMK A01 T02340211  RH  087%=      5-min Rain = 0
KCL2 170205Z 06007KT 23/21 A2988 RMK A01 T02340210  RH  087%=      5-min Rain = 0
KCL2 170206Z 06007KT 23/21 A2988 RMK A01 T02340210  RH  087%=      5-min Rain = 0
KCL2 170207Z 06008KT 23/21 A2988 RMK A01 T02340210  RH  087%=      5-min Rain = 0
KCL2 170208Z 06008KT 23/21 A2988 RMK A01 T02340210  RH  087%=      5-min Rain = 0
KCL2 170209Z 06007KT 23/21 A2988 RMK A01 T02340211  RH  087%=      5-min Rain = 0
KCL2 170210Z 06007KT 23/21 A2988 RMK A01 T02340211  RH  087%=      5-min Rain = 0
KCL2 170211Z 06007KT 23/21 A2988 RMK A01 T02330211  RH  087%=      5-min Rain = 0
KCL2 170212Z 06008KT 23/21 A2988 RMK A01 T02330211  RH  087%=      5-min Rain = 0
KCL2 170213Z 06009KT 23/21 A2988 RMK A01 T02330211  RH  088%=      5-min Rain = 0
KCL2 170214Z 06008KT 23/21 A2988 RMK A01 T02330211  RH  088%=      5-min Rain = 0
KCL2 170215Z 05007KT 23/21 A2988 RMK A01 T02330212  RH  088%=      5-min Rain = 0
KCL2 170216Z 05007KT 23/21 A2989 RMK A01 T02320212  RH  088%=      5-min Rain = 0
KCL2 170217Z 05009KT 23/21 A2989 RMK A01 T02320212  RH  089%=      5-min Rain = 0
KCL2 170218Z 06008KT 23/21 A2989 RMK A01 T02320212  RH  089%=      5-min Rain = 0
KCL2 170219Z 05007KT 23/21 A2989 RMK A01 T02320213  RH  089%=      5-min Rain = 0
KCL2 170220Z 06008KT 23/21 A2989 RMK A01 T02310213  RH  089%=      5-min Rain = 0
KCL2 170221Z 05009KT 23/21 A2989 RMK A01 T02310214  RH  090%=      5-min Rain = 0
KCL2 170222Z 06008KT 23/21 A2989 RMK A01 T02310214  RH  090%=      5-min Rain = 0
KCL2 170223Z 06009KT 23/21 A2989 RMK A01 T02310214  RH  090%=      5-min Rain = 0
KCL2 170224Z 06009KT 23/22 A2989 RMK A01 T02310215  RH  090%=      5-min Rain = 0
KCL2 170225Z 06008KT 23/22 A2989 RMK A01 T02310215  RH  091%=      5-min Rain = 0
KCL2 170226Z 06008KT 23/22 A2989 RMK A01 T02310215  RH  091%=      5-min Rain = 0
KCL2 170227Z 06009KT 23/22 A2989 RMK A01 T02310215  RH  091%=      5-min Rain = 0
KCL2 170228Z 06008KT 23/22 A2989 RMK A01 T02310216  RH  091%=      5-min Rain = 0
KCL2 170229Z 07009KT 23/22 A2989 RMK A01 T02310216  RH  091%=      5-min Rain = 0
KCL2 170230Z 06008KT 23/22 A2989 RMK A01 T02310216  RH  091%=      5-min Rain = 0
KCL2 170231Z 06007KT 23/22 A2989 RMK A01 T02310216  RH  091%=      5-min Rain = 0
KCL2 170232Z 07009KT 23/22 A2989 RMK A01 T02310216  RH  091%=      5-min Rain = 0
KCL2 170233Z 06009KT 23/22 A2989 RMK A01 T02310216  RH  091%=      5-min Rain = 0
KCL2 170234Z 06010KT 23/22 A2989 RMK A01 T02310215  RH  091%=      5-min Rain = 0
KCL2 170235Z 06009KT 23/22 A2989 RMK A01 T02310215  RH  091%=      5-min Rain = 0
KCL2 170236Z 06009KT 23/21 A2989 RMK A01 T02310214  RH  091%=      5-min Rain = 0
KCL2 170237Z 06008KT 23/21 A2989 RMK A01 T02310214  RH  091%=      5-min Rain = 0
KCL2 170238Z 06008KT 23/21 A2989 RMK A01 T02310214  RH  091%=      5-min Rain = 0
KCL2 170239Z 06009KT 23/21 A2989 RMK A01 T02310214  RH  090%=      5-min Rain = 0
KCL2 170240Z 06010KT 23/21 A2989 RMK A01 T02300214  RH  090%=      5-min Rain = 0
KCL2 170241Z 06010KT 23/21 A2989 RMK A01 T02300213  RH  090%=      5-min Rain = 0
KCL2 170242Z 06008KT 23/21 A2989 RMK A01 T02300213  RH  090%=      5-min Rain = 0
KCL2 170243Z 06011KT 23/21 A299 RMK A01 T02300213  RH  090%=      5-min Rain = 0
KCL2 170244Z 07009KT 23/21 A299 RMK A01 T02300213  RH  090%=      5-min Rain = 0
KCL2 170245Z 06010KT 23/21 A299 RMK A01 T02300213  RH  090%=      5-min Rain = 0
KCL2 170246Z 07009KT 23/21 A299 RMK A01 T02300212  RH  089%=      5-min Rain = 0
KCL2 170247Z 06009KT 23/21 A299 RMK A01 T02300212  RH  089%=      5-min Rain = 0
KCL2 170248Z 06009KT 23/21 A299 RMK A01 T02300212  RH  089%=      5-min Rain = 0
KCL2 170249Z 07011KT 23/21 A299 RMK A01 T02310211  RH  089%=      5-min Rain = 0
KCL2 170250Z 06011KT 23/21 A299 RMK A01 T02310211  RH  089%=      5-min Rain = 0
KCL2 170251Z 06009KT 23/21 A299 RMK A01 T02310210  RH  088%=      5-min Rain = 0
KCL2 170252Z 06011KT 23/21 A299 RMK A01 T02310210  RH  088%=      5-min Rain = 0
KCL2 170253Z 06008KT 23/21 A299 RMK A01 T02310210  RH  088%=      5-min Rain = 0
KCL2 170254Z 06009KT 23/21 A299 RMK A01 T02300211  RH  089%=      5-min Rain = 0
KCL2 170255Z 06009KT 23/21 A299 RMK A01 T02310211  RH  089%=      5-min Rain = 0
KCL2 170256Z 06009KT 23/21 A299 RMK A01 T02310211  RH  088%=      5-min Rain = 0
KCL2 170257Z 06009KT 23/21 A299 RMK A01 T02300210  RH  089%=      5-min Rain = 0
KCL2 170258Z 06010KT 23/21 A299 RMK A01 T02300210  RH  088%=      5-min Rain = 0
KCL2 170259Z 06011KT 23/21 A299 RMK A01 T02300209  RH  088%=      5-min Rain = 0
KCL2 170300Z 06011KT 23/21 A299 RMK A01 T02300209  RH  088%=      5-min Rain = 0
KCL2 170301Z 06009KT 23/21 A299 RMK A01 T02300210  RH  088%=      5-min Rain = 0
KCL2 170302Z 06010KT 23/21 A299 RMK A01 T02300210  RH  088%=      5-min Rain = 0
KCL2 170303Z 06011KT 23/21 A299 RMK A01 T02300209  RH  088%=      5-min Rain = 0
KCL2 170304Z 06010KT 23/21 A299 RMK A01 T02300208  RH  088%=      5-min Rain = 0
KCL2 170305Z 06010KT 23/21 A299 RMK A01 T02300208  RH  088%=      5-min Rain = 0
KCL2 170306Z 06008KT 23/21 A299 RMK A01 T02300209  RH  088%=      5-min Rain = 0
KCL2 170307Z 06010KT 23/21 A299 RMK A01 T02300209  RH  088%=      5-min Rain = 0
KCL2 170308Z 06009KT 23/21 A299 RMK A01 T02300209  RH  088%=      5-min Rain = 0
KCL2 170309Z 06010KT 23/21 A299 RMK A01 T02300209  RH  088%=      5-min Rain = 0
KCL2 170310Z 06011KT 23/21 A299 RMK A01 T02290209  RH  088%=      5-min Rain = 0
KCL2 170311Z 05010KT 23/21 A299 RMK A01 T02290208  RH  088%=      5-min Rain = 0
KCL2 170312Z 05008KT 23/21 A299 RMK A01 T02290209  RH  088%=      5-min Rain = 0
KCL2 170313Z 05010KT 23/21 A299 RMK A01 T02290209  RH  088%=      5-min Rain = 0
KCL2 170314Z 05011KT 23/21 A299 RMK A01 T02290208  RH  088%=      5-min Rain = 0
KCL2 170315Z 05010KT 23/21 A299 RMK A01 T02280208  RH  088%=      5-min Rain = 0
KCL2 170316Z 06010KT 23/21 A299 RMK A01 T02280208  RH  088%=      5-min Rain = 0
KCL2 170317Z 05010KT 23/21 A299 RMK A01 T02280208  RH  088%=      5-min Rain = 0
KCL2 170318Z 05010KT 23/21 A299 RMK A01 T02280208  RH  088%=      5-min Rain = 0
KCL2 170319Z 05010KT 23/21 A299 RMK A01 T02280208  RH  088%=      5-min Rain = 0
KCL2 170320Z 05010KT 23/21 A299 RMK A01 T02280207  RH  088%=      5-min Rain = 0
KCL2 170321Z 05010KT 23/21 A299 RMK A01 T02280207  RH  088%=      5-min Rain = 0
KCL2 170322Z 05011KT 23/21 A2989 RMK A01 T02280208  RH  088%=      5-min Rain = 0
KCL2 170323Z 05008KT 23/21 A2989 RMK A01 T02270207  RH  088%=      5-min Rain = 0
KCL2 170324Z 05008KT 23/21 A2989 RMK A01 T02270207  RH  088%=      5-min Rain = 0
KCL2 170325Z 05009KT 23/21 A2989 RMK A01 T02270207  RH  088%=      5-min Rain = 0
KCL2 170326Z 05010KT 23/21 A2989 RMK A01 T02270206  RH  088%=      5-min Rain = 0
KCL2 170327Z 05009KT 23/21 A2989 RMK A01 T02270206  RH  088%=      5-min Rain = 0
KCL2 170328Z 05007KT 23/21 A2989 RMK A01 T02270206  RH  088%=      5-min Rain = 0
KCL2 170329Z 05009KT 23/21 A2989 RMK A01 T02270206  RH  088%=      5-min Rain = 0
KCL2 170330Z 06010KT 23/21 A2989 RMK A01 T02260206  RH  088%=      5-min Rain = 0
KCL2 170331Z 06011KT 23/21 A2989 RMK A01 T02260206  RH  088%=      5-min Rain = 0
KCL2 170332Z 06010KT 23/21 A2989 RMK A01 T02260205  RH  088%=      5-min Rain = 0
KCL2 170333Z 05010KT 23/21 A299 RMK A01 T02260205  RH  088%=      5-min Rain = 0
KCL2 170334Z 05009KT 23/21 A299 RMK A01 T02270206  RH  088%=      5-min Rain = 0
KCL2 170335Z 05008KT 23/21 A299 RMK A01 T02270206  RH  088%=      5-min Rain = 0
KCL2 170336Z 05008KT 23/21 A299 RMK A01 T02270206  RH  088%=      5-min Rain = 0
KCL2 170337Z 04008KT 23/21 A299 RMK A01 T02260206  RH  088%=      5-min Rain = 0
KCL2 170338Z 05010KT 23/21 A299 RMK A01 T02260206  RH  089%=      5-min Rain = 0
KCL2 170339Z 04008KT 23/21 A299 RMK A01 T02260206  RH  088%=      5-min Rain = 0
KCL2 170340Z 04008KT 23/21 A299 RMK A01 T02260206  RH  089%=      5-min Rain = 0
KCL2 170341Z 04007KT 23/21 A299 RMK A01 T02260206  RH  089%=      5-min Rain = 0
KCL2 170342Z 04007KT 23/21 A299 RMK A01 T02250207  RH  089%=      5-min Rain = 0
KCL2 170343Z 04007KT 23/21 A299 RMK A01 T02250206  RH  089%=      5-min Rain = 0
KCL2 170344Z 05008KT 23/21 A299 RMK A01 T02250206  RH  089%=      5-min Rain = 0
KCL2 170345Z 05008KT 23/21 A299 RMK A01 T02250207  RH  089%=      5-min Rain = 0
KCL2 170346Z 04008KT 23/21 A299 RMK A01 T02250206  RH  089%=      5-min Rain = 0
KCL2 170347Z 05008KT 23/21 A299 RMK A01 T02250206  RH  089%=      5-min Rain = 0
KCL2 170348Z 05007KT 23/21 A299 RMK A01 T02250206  RH  089%=      5-min Rain = 0
KCL2 170349Z 05007KT 23/21 A2991 RMK A01 T02250206  RH  089%=      5-min Rain = 0
KCL2 170350Z 05007KT 23/21 A2991 RMK A01 T02250207  RH  089%=      5-min Rain = 0
KCL2 170351Z 04006KT 23/21 A2991 RMK A01 T02250206  RH  089%=      5-min Rain = 0
KCL2 170352Z 04006KT 23/21 A2991 RMK A01 T02250206  RH  089%=      5-min Rain = 0
KCL2 170353Z 05006KT 22/21 A2991 RMK A01 T02240206  RH  090%=      5-min Rain = 0
KCL2 170354Z 05008KT 22/21 A2991 RMK A01 T02240206  RH  090%=      5-min Rain = 0
KCL2 170355Z 05008KT 22/21 A2991 RMK A01 T02240206  RH  089%=      5-min Rain = 0
KCL2 170356Z 05008KT 22/21 A2991 RMK A01 T02240206  RH  090%=      5-min Rain = 0
KCL2 170357Z 05008KT 22/21 A2991 RMK A01 T02240206  RH  090%=      5-min Rain = 0
KCL2 170358Z 05007KT 22/21 A2991 RMK A01 T02240206  RH  090%=      5-min Rain = 0
KCL2 170359Z 05006KT 22/21 A2991 RMK A01 T02240206  RH  090%=      5-min Rain = 0
KCL2 170400Z 05008KT 22/21 A2991 RMK A01 T02240206  RH  090%=      5-min Rain = 0
KCL2 170401Z 05009KT 22/21 A2991 RMK A01 T02230206  RH  090%=      5-min Rain = 0
KCL2 170402Z 04008KT 22/21 A2991 RMK A01 T02230206  RH  090%=      5-min Rain = 0
KCL2 170403Z 05007KT 22/21 A2991 RMK A01 T02220206  RH  090%=      5-min Rain = 0
KCL2 170404Z 05007KT 22/21 A2991 RMK A01 T02220206  RH  091%=      5-min Rain = 0
KCL2 170405Z 05009KT 22/21 A2991 RMK A01 T02220206  RH  091%=      5-min Rain = 0
KCL2 170406Z 04008KT 22/21 A2991 RMK A01 T02210206  RH  091%=      5-min Rain = 0
KCL2 170407Z 04008KT 22/21 A2991 RMK A01 T02210206  RH  091%=      5-min Rain = 0
KCL2 170408Z 04008KT 22/21 A2991 RMK A01 T02210206  RH  091%=      5-min Rain = 0
KCL2 170409Z 04009KT 22/21 A2991 RMK A01 T02210206  RH  091%=      5-min Rain = 0
KCL2 170410Z 04008KT 22/21 A2991 RMK A01 T02200206  RH  091%=      5-min Rain = 0
KCL2 170411Z 05007KT 22/21 A2991 RMK A01 T02210206  RH  091%=      5-min Rain = 0
KCL2 170412Z 04007KT 22/21 A2991 RMK A01 T02200206  RH  092%=      5-min Rain = 0
KCL2 170413Z 04007KT 22/21 A2991 RMK A01 T02200206  RH  092%=      5-min Rain = 0
KCL2 170414Z 04007KT 22/21 A2991 RMK A01 T02190206  RH  092%=      5-min Rain = 0
KCL2 170415Z 04007KT 22/21 A2991 RMK A01 T02190205  RH  092%=      5-min Rain = 0
KCL2 170416Z 04007KT 22/21 A2991 RMK A01 T02190205  RH  092%=      5-min Rain = 0
KCL2 170417Z 04008KT 22/21 A2991 RMK A01 T02190205  RH  092%=      5-min Rain = 0
KCL2 170418Z 04007KT 22/21 A2991 RMK A01 T02180205  RH  092%=      5-min Rain = 0
KCL2 170419Z 04006KT 22/21 A2991 RMK A01 T02180205  RH  092%=      5-min Rain = 0
KCL2 170420Z 04006KT 22/21 A2991 RMK A01 T02180205  RH  092%=      5-min Rain = 0
KCL2 170421Z 04005KT 22/21 A2991 RMK A01 T02180205  RH  092%=      5-min Rain = 0
KCL2 170422Z 04006KT 22/21 A2991 RMK A01 T02170205  RH  092%=      5-min Rain = 0
KCL2 170423Z 04006KT 22/21 A2991 RMK A01 T02170205  RH  093%=      5-min Rain = 0
KCL2 170424Z 04005KT 22/21 A2991 RMK A01 T02170205  RH  093%=      5-min Rain = 0
KCL2 170425Z 05006KT 22/20 A2991 RMK A01 T02170204  RH  093%=      5-min Rain = 0
KCL2 170426Z 05007KT 22/21 A2991 RMK A01 T02170205  RH  093%=      5-min Rain = 0
KCL2 170427Z 04008KT 22/20 A2991 RMK A01 T02170204  RH  093%=      5-min Rain = 0
KCL2 170428Z 04007KT 22/20 A2991 RMK A01 T02170204  RH  092%=      5-min Rain = 0
KCL2 170429Z 04008KT 22/20 A2991 RMK A01 T02170204  RH  092%=      5-min Rain = 0
KCL2 170430Z 04009KT 22/20 A2991 RMK A01 T02170204  RH  092%=      5-min Rain = 0
KCL2 170431Z 04008KT 22/20 A2991 RMK A01 T02160203  RH  092%=      5-min Rain = 0
KCL2 170432Z 04007KT 22/20 A2991 RMK A01 T02160204  RH  093%=      5-min Rain = 0
KCL2 170433Z 04008KT 22/20 A2991 RMK A01 T02150203  RH  093%=      5-min Rain = 0
KCL2 170434Z 04008KT 22/20 A2991 RMK A01 T02160203  RH  093%=      5-min Rain = 0
KCL2 170435Z 05008KT 22/20 A2992 RMK A01 T02150203  RH  093%=      5-min Rain = 0
KCL2 170436Z 04008KT 22/20 A2992 RMK A01 T02150203  RH  093%=      5-min Rain = 0
KCL2 170437Z 04008KT 22/20 A2992 RMK A01 T02150202  RH  092%=      5-min Rain = 0
KCL2 170438Z 05007KT 22/20 A2992 RMK A01 T02160203  RH  092%=      5-min Rain = 0
KCL2 170439Z 04007KT 22/20 A2992 RMK A01 T02150202  RH  092%=      5-min Rain = 0
KCL2 170440Z 04007KT 22/20 A2992 RMK A01 T02150202  RH  092%=      5-min Rain = 0
KCL2 170441Z 04006KT 22/20 A2992 RMK A01 T02150202  RH  092%=      5-min Rain = 0
KCL2 170442Z 04007KT 22/20 A2992 RMK A01 T02150202  RH  092%=      5-min Rain = 0
KCL2 170443Z 04007KT 21/20 A2991 RMK A01 T02140201  RH  092%=      5-min Rain = 0
KCL2 170444Z 04006KT 21/20 A2991 RMK A01 T02140201  RH  092%=      5-min Rain = 0
KCL2 170445Z 03007KT 21/20 A2991 RMK A01 T02140201  RH  092%=      5-min Rain = 0
KCL2 170446Z 03008KT 21/20 A2991 RMK A01 T02130200  RH  092%=      5-min Rain = 0
KCL2 170447Z 04007KT 21/20 A2992 RMK A01 T02140200  RH  092%=      5-min Rain = 0
KCL2 170448Z 03009KT 21/20 A2991 RMK A01 T02140200  RH  092%=      5-min Rain = 0
KCL2 170449Z 04008KT 21/20 A2991 RMK A01 T02140200  RH  092%=      5-min Rain = 0
KCL2 170450Z 04008KT 21/20 A2991 RMK A01 T02140200  RH  092%=      5-min Rain = 0
KCL2 170451Z 04008KT 21/20 A2991 RMK A01 T02140200  RH  092%=      5-min Rain = 0
KCL2 170452Z 04007KT 21/20 A2991 RMK A01 T02140200  RH  092%=      5-min Rain = 0
KCL2 170453Z 04007KT 21/20 A2991 RMK A01 T02130200  RH  092%=      5-min Rain = 0
KCL2 170454Z 04007KT 21/20 A2991 RMK A01 T02130200  RH  092%=      5-min Rain = 0
KCL2 170455Z 04007KT 21/20 A2991 RMK A01 T02130199  RH  092%=      5-min Rain = 0
KCL2 170456Z 04006KT 21/20 A2991 RMK A01 T02130200  RH  092%=      5-min Rain = 0
KCL2 170457Z 05008KT 21/20 A2991 RMK A01 T02120199  RH  092%=      5-min Rain = 0
KCL2 170458Z 05007KT 21/20 A2991 RMK A01 T02120199  RH  092%=      5-min Rain = 0
KCL2 170459Z 05005KT 21/20 A2992 RMK A01 T02120199  RH  092%=      5-min Rain = 0

Page generated in 0.121 seconds.